Observation data for Amarillo 7 South Southeast on 06/14/2019      Previous  Date  Next       Current Mesonet Observations  Soil Data  Daily Summary Page  Observations in Plain Language
KAM1 140500Z 01011KT 18/15 A3013 RMK A01 T01750153  RH  087%=      5-min Rain = 0
KAM1 140501Z 01011KT 17/15 A3012 RMK A01 T01730153  RH  088%=      5-min Rain = 0
KAM1 140502Z 02010KT 17/16 A3012 RMK A01 T01720155  RH  090%=      5-min Rain = 0
KAM1 140503Z 02010KT 17/16 A3012 RMK A01 T01710157  RH  091%=      5-min Rain = 0
KAM1 140504Z 03012KT 17/16 A3013 RMK A01 T01710157  RH  092%=      5-min Rain = 0
KAM1 140505Z 02012KT 17/16 A3013 RMK A01 T01710157  RH  092%=      5-min Rain = 0
KAM1 140506Z 02013KT 17/16 A3013 RMK A01 T01710157  RH  092%=      5-min Rain = 0
KAM1 140507Z 02016KT 17/16 A3014 RMK A01 T01710155  RH  091%=      5-min Rain = 0
KAM1 140508Z 02014KT 17/15 A3014 RMK A01 T01700154  RH  090%=      5-min Rain = 0
KAM1 140509Z 02013KT 17/16 A3015 RMK A01 T01700155  RH  091%=      5-min Rain = 0
KAM1 140510Z 02015KT 17/16 A3015 RMK A01 T01690156  RH  092%=      5-min Rain = 0
KAM1 140511Z 02012KT 17/16 A3015 RMK A01 T01690157  RH  092%=      5-min Rain = 0.01
KAM1 140512Z 02012KT 17/16 A3015 RMK A01 T01690160  RH  095%=      5-min Rain = 0.01
KAM1 140513Z 01011KT 17/16 A3015 RMK A01 T01680162  RH  096%=      5-min Rain = 0.01
KAM1 140514Z 00011KT 17/16 A3015 RMK A01 T01670164  RH  098%=      5-min Rain = 0.01
KAM1 140515Z 01011KT 17/16 A3015 RMK A01 T01660164  RH  099%=      5-min Rain = 0
KAM1 140516Z 01010KT 17/17 A3015 RMK A01 T01650165  RH  099%=      5-min Rain = 0.01
KAM1 140517Z 01009KT 17/17 A3015 RMK A01 T01650165  RH  100%=      5-min Rain = 0
KAM1 140518Z 03011KT 17/17 A3015 RMK A01 T01650165  RH  100%=      5-min Rain = 0
KAM1 140519Z 03011KT 16/16 A3015 RMK A01 T01640164  RH  100%=      5-min Rain = 0
KAM1 140520Z 03011KT 16/16 A3014 RMK A01 T01640164  RH  099%=      5-min Rain = 0.01
KAM1 140521Z 04010KT 16/16 A3014 RMK A01 T01640164  RH  100%=      5-min Rain = 0
KAM1 140522Z 04011KT 16/16 A3013 RMK A01 T01640164  RH  100%=      5-min Rain = 0
KAM1 140523Z 05010KT 16/16 A3013 RMK A01 T01640164  RH  100%=      5-min Rain = 0
KAM1 140524Z 05012KT 16/16 A3012 RMK A01 T01630163  RH  100%=      5-min Rain = 0
KAM1 140525Z 06011KT 16/16 A3012 RMK A01 T01630163  RH  100%=      5-min Rain = 0
KAM1 140526Z 06014KT 16/16 A3011 RMK A01 T01630162  RH  100%=      5-min Rain = 0
KAM1 140527Z 06016KT 16/16 A3011 RMK A01 T01630160  RH  098%=      5-min Rain = 0.01
KAM1 140528Z 06017KT 16/16 A3011 RMK A01 T01630157  RH  096%=      5-min Rain = 0
KAM1 140529Z 06017KT 16/16 A3011 RMK A01 T01630157  RH  096%=      5-min Rain = 0
KAM1 140530Z 06017KT 16/16 A301 RMK A01 T01630157  RH  096%=      5-min Rain = 0
KAM1 140531Z 06016KT 16/16 A301 RMK A01 T01630157  RH  096%=      5-min Rain = 0
KAM1 140532Z 05018KT 16/16 A301 RMK A01 T01630156  RH  096%=      5-min Rain = 0
KAM1 140533Z 05017KT 16/16 A301 RMK A01 T01630155  RH  095%=      5-min Rain = 0
KAM1 140534Z 05017KT 16/16 A301 RMK A01 T01630155  RH  095%=      5-min Rain = 0
KAM1 140535Z 06015KT 16/16 A3009 RMK A01 T01630155  RH  095%=      5-min Rain = 0
KAM1 140536Z 06015KT 16/16 A3009 RMK A01 T01630156  RH  096%=      5-min Rain = 0
KAM1 140537Z 06015KT 16/16 A3008 RMK A01 T01620156  RH  096%=      5-min Rain = 0
KAM1 140538Z 06014G19KT 16/16 A3008 RMK A01 T01620157  RH  097%=      5-min Rain = 0
KAM1 140539Z 07015KT 16/16 A3007 RMK A01 T01610158  RH  098%=      5-min Rain = 0
KAM1 140540Z 06016KT 16/16 A3007 RMK A01 T01610158  RH  098%=      5-min Rain = 0
KAM1 140541Z 06017KT 16/16 A3007 RMK A01 T01600158  RH  099%=      5-min Rain = 0
KAM1 140542Z 06015G20KT 16/16 A3008 RMK A01 T01600159  RH  099%=      5-min Rain = 0
KAM1 140543Z 05017G22KT 16/16 A3008 RMK A01 T01600159  RH  099%=      5-min Rain = 0
KAM1 140544Z 05013KT 16/16 A3008 RMK A01 T01600159  RH  099%=      5-min Rain = 0
KAM1 140545Z 06011G16KT 16/16 A3008 RMK A01 T01590159  RH  100%=      5-min Rain = 0
KAM1 140546Z 06016KT 16/16 A3009 RMK A01 T01590159  RH  100%=      5-min Rain = 0
KAM1 140547Z 06013G18KT 16/16 A3009 RMK A01 T01590158  RH  099%=      5-min Rain = 0
KAM1 140548Z 07010KT 16/16 A3009 RMK A01 T01590159  RH  100%=      5-min Rain = 0
KAM1 140549Z 07010KT 16/16 A3009 RMK A01 T01590160  RH  100%=      5-min Rain = 0
KAM1 140550Z 07010KT 16/16 A3009 RMK A01 T01600160  RH  100%=      5-min Rain = 0
KAM1 140551Z 07011KT 16/16 A3009 RMK A01 T01590160  RH  100%=      5-min Rain = 0
KAM1 140552Z 07012KT 16/16 A3009 RMK A01 T01590160  RH  100%=      5-min Rain = 0
KAM1 140553Z 07013KT 16/16 A3009 RMK A01 T01590159  RH  100%=      5-min Rain = 0
KAM1 140554Z 07011KT 16/16 A3008 RMK A01 T01600158  RH  099%=      5-min Rain = 0
KAM1 140555Z 08012KT 16/16 A3008 RMK A01 T01600159  RH  099%=      5-min Rain = 0
KAM1 140556Z 09013KT 16/16 A3008 RMK A01 T01600159  RH  099%=      5-min Rain = 0
KAM1 140557Z 09013KT 16/16 A3007 RMK A01 T01600159  RH  099%=      5-min Rain = 0
KAM1 140558Z 10013KT 16/16 A3007 RMK A01 T01600159  RH  099%=      5-min Rain = 0
KAM1 140559Z 11012KT 16/16 A3007 RMK A01 T01600160  RH  100%=      5-min Rain = 0
KAM1 140600Z 11014KT 16/16 A3006 RMK A01 T01600160  RH  100%=      5-min Rain = 0
KAM1 140601Z 12014KT 16/16 A3006 RMK A01 T01590159  RH  100%=      5-min Rain = 0
KAM1 140602Z 11017KT 16/16 A3006 RMK A01 T01590159  RH  100%=      5-min Rain = 0
KAM1 140603Z 12015KT 16/16 A3005 RMK A01 T01600159  RH  099%=      5-min Rain = 0
KAM1 140604Z 11016KT 16/16 A3005 RMK A01 T01600159  RH  100%=      5-min Rain = 0
KAM1 140605Z 11015KT 16/16 A3005 RMK A01 T01590159  RH  100%=      5-min Rain = 0
KAM1 140606Z 12017KT 16/16 A3004 RMK A01 T01590159  RH  100%=      5-min Rain = 0
KAM1 140607Z 12016G21KT 16/16 A3004 RMK A01 T01590158  RH  099%=      5-min Rain = 0
KAM1 140608Z 12015KT 16/16 A3004 RMK A01 T01590157  RH  099%=      5-min Rain = 0
KAM1 140609Z 12015KT 16/16 A3004 RMK A01 T01590157  RH  099%=      5-min Rain = 0
KAM1 140610Z 11014KT 16/16 A3004 RMK A01 T01590158  RH  099%=      5-min Rain = 0
KAM1 140611Z 11016KT 16/16 A3004 RMK A01 T01590157  RH  099%=      5-min Rain = 0
KAM1 140612Z 12016KT 16/16 A3004 RMK A01 T01590157  RH  099%=      5-min Rain = 0
KAM1 140613Z 11015KT 16/16 A3004 RMK A01 T01590156  RH  098%=      5-min Rain = 0
KAM1 140614Z 12015KT 16/16 A3004 RMK A01 T01590155  RH  097%=      5-min Rain = 0
KAM1 140615Z 12015KT 16/15 A3004 RMK A01 T01600154  RH  096%=      5-min Rain = 0
KAM1 140616Z 12013KT 16/15 A3004 RMK A01 T01600154  RH  096%=      5-min Rain = 0
KAM1 140617Z 12012KT 16/15 A3004 RMK A01 T01600154  RH  096%=      5-min Rain = 0
KAM1 140618Z 12012KT 16/15 A3004 RMK A01 T01600154  RH  096%=      5-min Rain = 0
KAM1 140619Z 13012KT 16/15 A3004 RMK A01 T01600154  RH  096%=      5-min Rain = 0
KAM1 140620Z 13014KT 16/16 A3005 RMK A01 T01600155  RH  097%=      5-min Rain = 0
KAM1 140621Z 13012KT 16/16 A3005 RMK A01 T01600155  RH  097%=      5-min Rain = 0
KAM1 140622Z 13012KT 16/16 A3005 RMK A01 T01590155  RH  097%=      5-min Rain = 0
KAM1 140623Z 13014KT 16/15 A3005 RMK A01 T01590154  RH  097%=      5-min Rain = 0
KAM1 140624Z 14015KT 16/15 A3005 RMK A01 T01600153  RH  096%=      5-min Rain = 0
KAM1 140625Z 13015KT 16/15 A3004 RMK A01 T01610152  RH  095%=      5-min Rain = 0
KAM1 140626Z 14015KT 16/15 A3004 RMK A01 T01610152  RH  094%=      5-min Rain = 0
KAM1 140627Z 14015KT 16/15 A3004 RMK A01 T01610153  RH  094%=      5-min Rain = 0
KAM1 140628Z 14014KT 16/15 A3004 RMK A01 T01610153  RH  095%=      5-min Rain = 0
KAM1 140629Z 14014KT 16/15 A3003 RMK A01 T01610153  RH  095%=      5-min Rain = 0
KAM1 140630Z 14014KT 16/15 A3003 RMK A01 T01610153  RH  095%=      5-min Rain = 0
KAM1 140631Z 14015KT 16/15 A3003 RMK A01 T01600154  RH  096%=      5-min Rain = 0
KAM1 140632Z 14014KT 16/15 A3003 RMK A01 T01600154  RH  096%=      5-min Rain = 0
KAM1 140633Z 15013KT 16/15 A3003 RMK A01 T01600153  RH  096%=      5-min Rain = 0
KAM1 140634Z 15014KT 16/15 A3003 RMK A01 T01600154  RH  096%=      5-min Rain = 0
KAM1 140635Z 15015KT 16/15 A3003 RMK A01 T01600153  RH  096%=      5-min Rain = 0
KAM1 140636Z 15014KT 16/15 A3003 RMK A01 T01610153  RH  095%=      5-min Rain = 0
KAM1 140637Z 16014KT 16/15 A3003 RMK A01 T01600152  RH  095%=      5-min Rain = 0
KAM1 140638Z 15014KT 16/15 A3003 RMK A01 T01600153  RH  096%=      5-min Rain = 0
KAM1 140639Z 16013KT 16/15 A3003 RMK A01 T01600153  RH  096%=      5-min Rain = 0
KAM1 140640Z 15015KT 16/15 A3003 RMK A01 T01600153  RH  096%=      5-min Rain = 0
KAM1 140641Z 16013KT 16/15 A3003 RMK A01 T01590153  RH  096%=      5-min Rain = 0
KAM1 140642Z 16012KT 16/15 A3003 RMK A01 T01590153  RH  096%=      5-min Rain = 0
KAM1 140643Z 15013KT 16/15 A3003 RMK A01 T01590154  RH  097%=      5-min Rain = 0
KAM1 140644Z 15014KT 16/15 A3003 RMK A01 T01590153  RH  096%=      5-min Rain = 0
KAM1 140645Z 15013KT 16/15 A3002 RMK A01 T01590153  RH  096%=      5-min Rain = 0
KAM1 140646Z 14013KT 16/15 A3002 RMK A01 T01590153  RH  096%=      5-min Rain = 0
KAM1 140647Z 14014KT 16/15 A3002 RMK A01 T01590152  RH  096%=      5-min Rain = 0
KAM1 140648Z 14012KT 16/15 A3002 RMK A01 T01600153  RH  095%=      5-min Rain = 0
KAM1 140649Z 14012KT 16/15 A3002 RMK A01 T01600153  RH  095%=      5-min Rain = 0
KAM1 140650Z 14013KT 16/15 A3002 RMK A01 T01600153  RH  095%=      5-min Rain = 0
KAM1 140651Z 14012KT 16/15 A3002 RMK A01 T01600153  RH  096%=      5-min Rain = 0
KAM1 140652Z 14013KT 16/15 A3002 RMK A01 T01600154  RH  096%=      5-min Rain = 0
KAM1 140653Z 15013KT 16/15 A3002 RMK A01 T01600153  RH  096%=      5-min Rain = 0
KAM1 140654Z 14012KT 16/15 A3002 RMK A01 T01600154  RH  096%=      5-min Rain = 0
KAM1 140655Z 14012KT 16/15 A3002 RMK A01 T01590154  RH  097%=      5-min Rain = 0
KAM1 140656Z 14014KT 16/15 A3002 RMK A01 T01590154  RH  097%=      5-min Rain = 0
KAM1 140657Z 15013KT 16/15 A3002 RMK A01 T01600153  RH  096%=      5-min Rain = 0
KAM1 140658Z 15012KT 16/15 A3002 RMK A01 T01600153  RH  096%=      5-min Rain = 0
KAM1 140659Z 14010KT 16/15 A3002 RMK A01 T01600154  RH  096%=      5-min Rain = 0
KAM1 140700Z 15011KT 16/15 A3002 RMK A01 T01600154  RH  096%=      5-min Rain = 0
KAM1 140701Z 15011KT 16/15 A3003 RMK A01 T01600154  RH  096%=      5-min Rain = 0
KAM1 140702Z 15010KT 16/15 A3003 RMK A01 T01600154  RH  096%=      5-min Rain = 0
KAM1 140703Z 15010KT 16/16 A3003 RMK A01 T01600155  RH  097%=      5-min Rain = 0
KAM1 140704Z 16008KT 16/16 A3004 RMK A01 T01600155  RH  097%=      5-min Rain = 0
KAM1 140705Z 16009KT 16/16 A3004 RMK A01 T01600156  RH  097%=      5-min Rain = 0
KAM1 140706Z 16009KT 16/16 A3004 RMK A01 T01600156  RH  098%=      5-min Rain = 0
KAM1 140707Z 16008KT 16/16 A3004 RMK A01 T01590157  RH  098%=      5-min Rain = 0
KAM1 140708Z 16007KT 16/16 A3005 RMK A01 T01590157  RH  099%=      5-min Rain = 0
KAM1 140709Z 16007KT 16/16 A3005 RMK A01 T01590158  RH  099%=      5-min Rain = 0
KAM1 140710Z 15006KT 16/16 A3005 RMK A01 T01590158  RH  100%=      5-min Rain = 0
KAM1 140711Z 14008KT 16/16 A3005 RMK A01 T01590159  RH  100%=      5-min Rain = 0
KAM1 140712Z 14006KT 16/16 A3005 RMK A01 T01590159  RH  100%=      5-min Rain = 0
KAM1 140713Z 15006KT 16/16 A3006 RMK A01 T01590159  RH  100%=      5-min Rain = 0
KAM1 140714Z 16006KT 16/16 A3006 RMK A01 T01590160  RH  100%=      5-min Rain = 0
KAM1 140715Z 16007KT 16/16 A3006 RMK A01 T01600160  RH  100%=      5-min Rain = 0
KAM1 140716Z 16007KT 16/16 A3006 RMK A01 T01600160  RH  100%=      5-min Rain = 0
KAM1 140717Z 15008KT 16/16 A3006 RMK A01 T01590160  RH  100%=      5-min Rain = 0
KAM1 140718Z 15010KT 16/16 A3006 RMK A01 T01590159  RH  100%=      5-min Rain = 0
KAM1 140719Z 15010KT 16/16 A3005 RMK A01 T01590159  RH  100%=      5-min Rain = 0
KAM1 140720Z 14009KT 16/16 A3005 RMK A01 T01590159  RH  100%=      5-min Rain = 0
KAM1 140721Z 14010KT 16/16 A3005 RMK A01 T01590159  RH  100%=      5-min Rain = 0
KAM1 140722Z 13011KT 16/16 A3005 RMK A01 T01600160  RH  100%=      5-min Rain = 0
KAM1 140723Z 13011KT 16/16 A3005 RMK A01 T01600160  RH  100%=      5-min Rain = 0
KAM1 140724Z 13011KT 16/16 A3005 RMK A01 T01610161  RH  100%=      5-min Rain = 0
KAM1 140725Z 13011KT 16/16 A3005 RMK A01 T01610161  RH  100%=      5-min Rain = 0
KAM1 140726Z 13012KT 16/16 A3005 RMK A01 T01610161  RH  100%=      5-min Rain = 0
KAM1 140727Z 14013KT 16/16 A3004 RMK A01 T01610161  RH  100%=      5-min Rain = 0
KAM1 140728Z 13013KT 16/16 A3004 RMK A01 T01610161  RH  100%=      5-min Rain = 0
KAM1 140729Z 14013KT 16/16 A3004 RMK A01 T01610161  RH  100%=      5-min Rain = 0
KAM1 140730Z 13014KT 16/16 A3004 RMK A01 T01610161  RH  100%=      5-min Rain = 0
KAM1 140731Z 14013KT 16/16 A3004 RMK A01 T01610161  RH  100%=      5-min Rain = 0
KAM1 140732Z 14013KT 16/16 A3003 RMK A01 T01610161  RH  100%=      5-min Rain = 0
KAM1 140733Z 14014KT 16/16 A3003 RMK A01 T01610161  RH  100%=      5-min Rain = 0
KAM1 140734Z 14015KT 16/16 A3003 RMK A01 T01610161  RH  100%=      5-min Rain = 0
KAM1 140735Z 14013KT 16/16 A3003 RMK A01 T01610161  RH  100%=      5-min Rain = 0
KAM1 140736Z 13015KT 16/16 A3003 RMK A01 T01610161  RH  100%=      5-min Rain = 0
KAM1 140737Z 14016KT 16/16 A3003 RMK A01 T01610161  RH  100%=      5-min Rain = 0
KAM1 140738Z 14018KT 16/16 A3002 RMK A01 T01600160  RH  100%=      5-min Rain = 0
KAM1 140739Z 15016KT 16/16 A3002 RMK A01 T01600160  RH  100%=      5-min Rain = 0
KAM1 140740Z 15016G23KT 16/16 A3001 RMK A01 T01590159  RH  100%=      5-min Rain = 0
KAM1 140741Z 14017G22KT 16/16 A3001 RMK A01 T01580158  RH  100%=      5-min Rain = 0
KAM1 140742Z 15019KT 16/16 A3001 RMK A01 T01570157  RH  100%=      5-min Rain = 0
KAM1 140743Z 14018G23KT 16/16 A30 RMK A01 T01560156  RH  100%=      5-min Rain = 0
KAM1 140744Z 15018KT 16/16 A2999 RMK A01 T01550155  RH  100%=      5-min Rain = 0
KAM1 140745Z 16019G25KT 16/16 A2999 RMK A01 T01550155  RH  100%=      5-min Rain = 0
KAM1 140746Z 15019G29KT 16/16 A2999 RMK A01 T01550155  RH  100%=      5-min Rain = 0
KAM1 140747Z 15022G28KT 15/15 A2998 RMK A01 T01540154  RH  100%=      5-min Rain = 0
KAM1 140748Z 16020G26KT 15/15 A2999 RMK A01 T01540154  RH  100%=      5-min Rain = 0
KAM1 140749Z 15016KT 15/15 A30 RMK A01 T01540154  RH  100%=      5-min Rain = 0
KAM1 140750Z 13013G22KT 15/15 A3001 RMK A01 T01530154  RH  100%=      5-min Rain = 0
KAM1 140751Z 14005G10KT 15/15 A3002 RMK A01 T01540154  RH  100%=      5-min Rain = 0
KAM1 140752Z 18004KT 15/15 A3004 RMK A01 T01540154  RH  100%=      5-min Rain = 0
KAM1 140753Z 35003KT 15/15 A3004 RMK A01 T01540154  RH  100%=      5-min Rain = 0
KAM1 140754Z 02006KT 15/15 A3004 RMK A01 T01540154  RH  100%=      5-min Rain = 0
KAM1 140755Z 04009KT 15/15 A3004 RMK A01 T01540154  RH  100%=      5-min Rain = 0
KAM1 140756Z 05013KT 15/15 A3004 RMK A01 T01540154  RH  100%=      5-min Rain = 0
KAM1 140757Z 06016KT 15/15 A3003 RMK A01 T01540154  RH  100%=      5-min Rain = 0
KAM1 140758Z 05014G19KT 15/15 A3003 RMK A01 T01540154  RH  100%=      5-min Rain = 0
KAM1 140759Z 06014KT 15/15 A3003 RMK A01 T01540154  RH  100%=      5-min Rain = 0
KAM1 140800Z 06012KT 15/15 A3003 RMK A01 T01540154  RH  100%=      5-min Rain = 0
KAM1 140801Z 07013KT 15/15 A3003 RMK A01 T01540154  RH  100%=      5-min Rain = 0
KAM1 140802Z 08015KT 15/15 A3003 RMK A01 T01540154  RH  100%=      5-min Rain = 0
KAM1 140803Z 08014G19KT 15/15 A3003 RMK A01 T01540154  RH  100%=      5-min Rain = 0
KAM1 140804Z 08017KT 15/15 A3003 RMK A01 T01540154  RH  100%=      5-min Rain = 0
KAM1 140805Z 08017KT 15/15 A3002 RMK A01 T01540154  RH  100%=      5-min Rain = 0
KAM1 140806Z 09018KT 15/15 A3002 RMK A01 T01540154  RH  100%=      5-min Rain = 0
KAM1 140807Z 09013G18KT 15/15 A3003 RMK A01 T01540154  RH  100%=      5-min Rain = 0
KAM1 140808Z 10013KT 15/15 A3003 RMK A01 T01530153  RH  100%=      5-min Rain = 0
KAM1 140809Z 10014KT 15/15 A3003 RMK A01 T01530153  RH  100%=      5-min Rain = 0
KAM1 140810Z 10014KT 15/15 A3002 RMK A01 T01530153  RH  100%=      5-min Rain = 0
KAM1 140811Z 11011KT 15/15 A3002 RMK A01 T01530153  RH  100%=      5-min Rain = 0
KAM1 140812Z 11017KT 15/15 A3002 RMK A01 T01520152  RH  100%=      5-min Rain = 0
KAM1 140813Z 13016KT 15/15 A3002 RMK A01 T01520153  RH  100%=      5-min Rain = 0
KAM1 140814Z 13016KT 15/15 A3001 RMK A01 T01540154  RH  100%=      5-min Rain = 0
KAM1 140815Z 13018KT 16/16 A30 RMK A01 T01560156  RH  100%=      5-min Rain = 0
KAM1 140816Z 13018G23KT 16/16 A30 RMK A01 T01580158  RH  100%=      5-min Rain = 0
KAM1 140817Z 13019KT 16/16 A2999 RMK A01 T01590160  RH  100%=      5-min Rain = 0
KAM1 140818Z 13020KT 16/16 A2999 RMK A01 T01590160  RH  100%=      5-min Rain = 0
KAM1 140819Z 14018G23KT 16/16 A2998 RMK A01 T01610161  RH  100%=      5-min Rain = 0
KAM1 140820Z 13018KT 17/17 A2997 RMK A01 T01650165  RH  100%=      5-min Rain = 0
KAM1 140821Z 15022G28KT 17/17 A2996 RMK A01 T01710167  RH  098%=      5-min Rain = 0
KAM1 140822Z 15025KT 17/16 A2995 RMK A01 T01740164  RH  094%=      5-min Rain = 0
KAM1 140823Z 13017G27KT 18/16 A2994 RMK A01 T01750164  RH  093%=      5-min Rain = 0
KAM1 140824Z 14020G30KT 18/17 A2994 RMK A01 T01810166  RH  091%=      5-min Rain = 0
KAM1 140825Z 13019G26KT 18/16 A2994 RMK A01 T01840164  RH  088%=      5-min Rain = 0
KAM1 140826Z 13019G25KT 18/16 A2994 RMK A01 T01820163  RH  089%=      5-min Rain = 0
KAM1 140827Z 12022G27KT 18/16 A2994 RMK A01 T01810162  RH  089%=      5-min Rain = 0
KAM1 140828Z 11016KT 18/16 A2995 RMK A01 T01790160  RH  089%=      5-min Rain = 0
KAM1 140829Z 12019G25KT 17/16 A2996 RMK A01 T01740159  RH  091%=      5-min Rain = 0
KAM1 140830Z 14012G17KT 17/16 A2997 RMK A01 T01730163  RH  094%=      5-min Rain = 0
KAM1 140831Z 14015KT 18/16 A2997 RMK A01 T01750163  RH  092%=      5-min Rain = 0
KAM1 140832Z 13012G18KT 18/16 A2998 RMK A01 T01780162  RH  091%=      5-min Rain = 0
KAM1 140833Z 15014KT 18/16 A2998 RMK A01 T01800161  RH  089%=      5-min Rain = 0
KAM1 140834Z 12014KT 18/16 A2998 RMK A01 T01810162  RH  088%=      5-min Rain = 0
KAM1 140835Z 12013KT 18/16 A2998 RMK A01 T01820161  RH  088%=      5-min Rain = 0
KAM1 140836Z 12013KT 18/16 A2998 RMK A01 T01820162  RH  088%=      5-min Rain = 0
KAM1 140837Z 12012KT 18/16 A2998 RMK A01 T01820162  RH  088%=      5-min Rain = 0
KAM1 140838Z 13014KT 18/16 A2998 RMK A01 T01800161  RH  089%=      5-min Rain = 0
KAM1 140839Z 12011KT 18/16 A2998 RMK A01 T01790162  RH  090%=      5-min Rain = 0
KAM1 140840Z 11013KT 18/16 A2997 RMK A01 T01780162  RH  091%=      5-min Rain = 0
KAM1 140841Z 11009KT 18/16 A2997 RMK A01 T01760162  RH  091%=      5-min Rain = 0
KAM1 140842Z 14009G16KT 18/16 A2997 RMK A01 T01750162  RH  092%=      5-min Rain = 0
KAM1 140843Z 13010G19KT 18/16 A2997 RMK A01 T01760164  RH  092%=      5-min Rain = 0
KAM1 140844Z 14013G18KT 18/17 A2997 RMK A01 T01790166  RH  092%=      5-min Rain = 0
KAM1 140845Z 13009KT 18/17 A2997 RMK A01 T01830166  RH  089%=      5-min Rain = 0
KAM1 140846Z 13011KT 18/17 A2997 RMK A01 T01840165  RH  089%=      5-min Rain = 0
KAM1 140847Z 11012G17KT 18/16 A2997 RMK A01 T01840164  RH  088%=      5-min Rain = 0
KAM1 140848Z 12008G14KT 18/16 A2997 RMK A01 T01810163  RH  089%=      5-min Rain = 0
KAM1 140849Z 11008KT 18/16 A2997 RMK A01 T01790163  RH  090%=      5-min Rain = 0
KAM1 140850Z 10009KT 18/16 A2997 RMK A01 T01750159  RH  090%=      5-min Rain = 0
KAM1 140851Z 10010KT 17/16 A2997 RMK A01 T01700158  RH  093%=      5-min Rain = 0
KAM1 140852Z 10008KT 17/16 A2997 RMK A01 T01660158  RH  095%=      5-min Rain = 0
KAM1 140853Z 10008KT 16/16 A2997 RMK A01 T01620158  RH  097%=      5-min Rain = 0
KAM1 140854Z 11007KT 16/16 A2997 RMK A01 T01600159  RH  099%=      5-min Rain = 0
KAM1 140855Z 12007KT 16/16 A2997 RMK A01 T01580158  RH  100%=      5-min Rain = 0
KAM1 140856Z 10009KT 16/16 A2997 RMK A01 T01570157  RH  100%=      5-min Rain = 0
KAM1 140857Z 11008KT 16/16 A2997 RMK A01 T01560156  RH  100%=      5-min Rain = 0
KAM1 140858Z 11006KT 16/16 A2997 RMK A01 T01550156  RH  100%=      5-min Rain = 0
KAM1 140859Z 10007KT 16/16 A2997 RMK A01 T01550155  RH  100%=      5-min Rain = 0
KAM1 140900Z 11005KT 16/16 A2997 RMK A01 T01550155  RH  100%=      5-min Rain = 0
KAM1 140901Z 11008KT 15/15 A2997 RMK A01 T01540154  RH  100%=      5-min Rain = 0
KAM1 140902Z 10008KT 15/15 A2997 RMK A01 T01540154  RH  100%=      5-min Rain = 0
KAM1 140903Z 10007KT 16/16 A2997 RMK A01 T01550155  RH  100%=      5-min Rain = 0
KAM1 140904Z 11006KT 15/15 A2997 RMK A01 T01540154  RH  100%=      5-min Rain = 0
KAM1 140905Z 14007KT 15/15 A2997 RMK A01 T01540154  RH  100%=      5-min Rain = 0
KAM1 140906Z 13008KT 16/16 A2996 RMK A01 T01550155  RH  100%=      5-min Rain = 0
KAM1 140907Z 15010KT 16/16 A2996 RMK A01 T01580158  RH  100%=      5-min Rain = 0
KAM1 140908Z 14011KT 16/17 A2996 RMK A01 T01640165  RH  100%=      5-min Rain = 0
KAM1 140909Z 14007KT 17/17 A2996 RMK A01 T01700168  RH  099%=      5-min Rain = 0
KAM1 140910Z 15010KT 17/17 A2996 RMK A01 T01700167  RH  098%=      5-min Rain = 0
KAM1 140911Z 13009KT 17/17 A2996 RMK A01 T01720170  RH  099%=      5-min Rain = 0
KAM1 140912Z 12008KT 17/16 A2996 RMK A01 T01730163  RH  094%=      5-min Rain = 0
KAM1 140913Z 12006KT 17/16 A2996 RMK A01 T01680158  RH  094%=      5-min Rain = 0
KAM1 140914Z 12005KT 16/16 A2996 RMK A01 T01620159  RH  098%=      5-min Rain = 0
KAM1 140915Z 12007KT 16/16 A2996 RMK A01 T01590159  RH  100%=      5-min Rain = 0
KAM1 140916Z 12006KT 16/16 A2996 RMK A01 T01570157  RH  100%=      5-min Rain = 0
KAM1 140917Z 13005KT 16/16 A2996 RMK A01 T01550156  RH  100%=      5-min Rain = 0
KAM1 140918Z 14006KT 15/16 A2995 RMK A01 T01540155  RH  100%=      5-min Rain = 0
KAM1 140919Z 15006KT 15/15 A2995 RMK A01 T01540154  RH  100%=      5-min Rain = 0
KAM1 140920Z 15010KT 15/16 A2995 RMK A01 T01540155  RH  100%=      5-min Rain = 0
KAM1 140921Z 16011KT 16/16 A2995 RMK A01 T01610161  RH  100%=      5-min Rain = 0
KAM1 140922Z 16011G16KT 17/17 A2995 RMK A01 T01670168  RH  100%=      5-min Rain = 0
KAM1 140923Z 16014KT 17/17 A2995 RMK A01 T01740172  RH  099%=      5-min Rain = 0
KAM1 140924Z 16015G20KT 18/17 A2995 RMK A01 T01800170  RH  094%=      5-min Rain = 0
KAM1 140925Z 16012KT 18/17 A2995 RMK A01 T01830169  RH  091%=      5-min Rain = 0
KAM1 140926Z 16013KT 18/17 A2995 RMK A01 T01840167  RH  090%=      5-min Rain = 0
KAM1 140927Z 16012G18KT 18/17 A2995 RMK A01 T01840166  RH  089%=      5-min Rain = 0
KAM1 140928Z 16012KT 18/17 A2995 RMK A01 T01840166  RH  089%=      5-min Rain = 0
KAM1 140929Z 16010KT 18/17 A2995 RMK A01 T01840166  RH  089%=      5-min Rain = 0
KAM1 140930Z 16012KT 18/17 A2995 RMK A01 T01830166  RH  089%=      5-min Rain = 0
KAM1 140931Z 16013KT 18/17 A2995 RMK A01 T01830165  RH  089%=      5-min Rain = 0
KAM1 140932Z 17012KT 18/16 A2995 RMK A01 T01830164  RH  089%=      5-min Rain = 0
KAM1 140933Z 16012G18KT 18/16 A2995 RMK A01 T01830164  RH  089%=      5-min Rain = 0
KAM1 140934Z 16012KT 18/17 A2995 RMK A01 T01830165  RH  089%=      5-min Rain = 0
KAM1 140935Z 17012G17KT 18/16 A2995 RMK A01 T01830164  RH  089%=      5-min Rain = 0
KAM1 140936Z 17014KT 18/16 A2995 RMK A01 T01830163  RH  088%=      5-min Rain = 0
KAM1 140937Z 17013KT 18/16 A2995 RMK A01 T01830163  RH  088%=      5-min Rain = 0
KAM1 140938Z 17012KT 18/16 A2995 RMK A01 T01840163  RH  087%=      5-min Rain = 0
KAM1 140939Z 17011KT 18/16 A2995 RMK A01 T01840163  RH  087%=      5-min Rain = 0
KAM1 140940Z 16012KT 18/16 A2995 RMK A01 T01830163  RH  088%=      5-min Rain = 0
KAM1 140941Z 17012KT 18/16 A2995 RMK A01 T01830163  RH  088%=      5-min Rain = 0
KAM1 140942Z 17011KT 18/16 A2996 RMK A01 T01830163  RH  088%=      5-min Rain = 0
KAM1 140943Z 17011KT 18/16 A2996 RMK A01 T01830163  RH  088%=      5-min Rain = 0
KAM1 140944Z 17008KT 18/16 A2996 RMK A01 T01820163  RH  089%=      5-min Rain = 0
KAM1 140945Z 16009KT 18/16 A2995 RMK A01 T01810163  RH  089%=      5-min Rain = 0
KAM1 140946Z 16012KT 18/16 A2995 RMK A01 T01800163  RH  090%=      5-min Rain = 0
KAM1 140947Z 17011KT 18/16 A2995 RMK A01 T01800163  RH  090%=      5-min Rain = 0
KAM1 140948Z 17010KT 18/16 A2995 RMK A01 T01800163  RH  090%=      5-min Rain = 0
KAM1 140949Z 17013KT 18/16 A2995 RMK A01 T01800163  RH  090%=      5-min Rain = 0
KAM1 140950Z 17012KT 18/16 A2996 RMK A01 T01800163  RH  090%=      5-min Rain = 0
KAM1 140951Z 17012KT 18/16 A2995 RMK A01 T01810163  RH  090%=      5-min Rain = 0
KAM1 140952Z 17012KT 18/16 A2995 RMK A01 T01800164  RH  090%=      5-min Rain = 0
KAM1 140953Z 16011KT 18/16 A2995 RMK A01 T01800163  RH  090%=      5-min Rain = 0
KAM1 140954Z 17012KT 18/16 A2995 RMK A01 T01790164  RH  091%=      5-min Rain = 0
KAM1 140955Z 17012KT 18/16 A2995 RMK A01 T01790163  RH  091%=      5-min Rain = 0
KAM1 140956Z 17011KT 18/16 A2995 RMK A01 T01780163  RH  091%=      5-min Rain = 0
KAM1 140957Z 17012KT 18/16 A2995 RMK A01 T01780163  RH  091%=      5-min Rain = 0
KAM1 140958Z 17013KT 18/16 A2995 RMK A01 T01780163  RH  091%=      5-min Rain = 0
KAM1 140959Z 16011KT 18/16 A2995 RMK A01 T01780163  RH  091%=      5-min Rain = 0
KAM1 141000Z 16013KT 18/16 A2995 RMK A01 T01770164  RH  092%=      5-min Rain = 0
KAM1 141001Z 17013KT 18/16 A2995 RMK A01 T01770163  RH  092%=      5-min Rain = 0
KAM1 141002Z 17013KT 18/16 A2995 RMK A01 T01770163  RH  092%=      5-min Rain = 0
KAM1 141003Z 17012KT 18/16 A2995 RMK A01 T01770163  RH  091%=      5-min Rain = 0
KAM1 141004Z 16012KT 18/16 A2995 RMK A01 T01770164  RH  092%=      5-min Rain = 0
KAM1 141005Z 16013KT 18/16 A2995 RMK A01 T01770164  RH  092%=      5-min Rain = 0
KAM1 141006Z 16012KT 18/16 A2995 RMK A01 T01770164  RH  092%=      5-min Rain = 0
KAM1 141007Z 15012KT 18/16 A2995 RMK A01 T01770164  RH  092%=      5-min Rain = 0
KAM1 141008Z 16012KT 18/16 A2995 RMK A01 T01780164  RH  092%=      5-min Rain = 0
KAM1 141009Z 15014KT 18/16 A2995 RMK A01 T01780164  RH  092%=      5-min Rain = 0
KAM1 141010Z 15015KT 18/16 A2994 RMK A01 T01780164  RH  091%=      5-min Rain = 0
KAM1 141011Z 15014KT 18/16 A2994 RMK A01 T01790164  RH  091%=      5-min Rain = 0
KAM1 141012Z 15012KT 18/16 A2994 RMK A01 T01790164  RH  091%=      5-min Rain = 0
KAM1 141013Z 15013KT 18/17 A2994 RMK A01 T01790165  RH  092%=      5-min Rain = 0
KAM1 141014Z 15014KT 18/17 A2994 RMK A01 T01790165  RH  092%=      5-min Rain = 0
KAM1 141015Z 16013KT 18/17 A2994 RMK A01 T01780166  RH  092%=      5-min Rain = 0
KAM1 141016Z 16014KT 18/17 A2994 RMK A01 T01780166  RH  093%=      5-min Rain = 0
KAM1 141017Z 15013KT 18/17 A2994 RMK A01 T01770165  RH  093%=      5-min Rain = 0
KAM1 141018Z 16013KT 18/17 A2994 RMK A01 T01770166  RH  093%=      5-min Rain = 0
KAM1 141019Z 16014KT 18/17 A2994 RMK A01 T01770166  RH  093%=      5-min Rain = 0
KAM1 141020Z 15014KT 18/17 A2994 RMK A01 T01770166  RH  093%=      5-min Rain = 0
KAM1 141021Z 16016KT 18/17 A2994 RMK A01 T01770165  RH  093%=      5-min Rain = 0
KAM1 141022Z 15016KT 18/16 A2994 RMK A01 T01780164  RH  092%=      5-min Rain = 0
KAM1 141023Z 16017G22KT 18/16 A2994 RMK A01 T01790164  RH  091%=      5-min Rain = 0
KAM1 141024Z 16016KT 18/16 A2994 RMK A01 T01800163  RH  090%=      5-min Rain = 0
KAM1 141025Z 16014KT 18/16 A2994 RMK A01 T01800163  RH  090%=      5-min Rain = 0
KAM1 141026Z 16015KT 18/16 A2994 RMK A01 T01790164  RH  091%=      5-min Rain = 0
KAM1 141027Z 16017KT 18/16 A2994 RMK A01 T01790164  RH  091%=      5-min Rain = 0
KAM1 141028Z 16016KT 18/16 A2994 RMK A01 T01790163  RH  090%=      5-min Rain = 0
KAM1 141029Z 16016KT 18/16 A2994 RMK A01 T01790163  RH  090%=      5-min Rain = 0
KAM1 141030Z 16017KT 18/16 A2994 RMK A01 T01790163  RH  090%=      5-min Rain = 0
KAM1 141031Z 16016KT 18/16 A2994 RMK A01 T01790163  RH  091%=      5-min Rain = 0
KAM1 141032Z 16016KT 18/16 A2994 RMK A01 T01780163  RH  090%=      5-min Rain = 0
KAM1 141033Z 16017G22KT 18/16 A2994 RMK A01 T01780162  RH  090%=      5-min Rain = 0
KAM1 141034Z 16016G21KT 18/16 A2993 RMK A01 T01780162  RH  090%=      5-min Rain = 0
KAM1 141035Z 15017KT 18/16 A2993 RMK A01 T01780162  RH  090%=      5-min Rain = 0
KAM1 141036Z 16016KT 18/16 A2993 RMK A01 T01780162  RH  090%=      5-min Rain = 0
KAM1 141037Z 16016KT 18/16 A2993 RMK A01 T01780162  RH  090%=      5-min Rain = 0
KAM1 141038Z 16016G21KT 18/16 A2993 RMK A01 T01780162  RH  090%=      5-min Rain = 0
KAM1 141039Z 16017G22KT 18/16 A2993 RMK A01 T01770161  RH  090%=      5-min Rain = 0
KAM1 141040Z 16018KT 18/16 A2993 RMK A01 T01770161  RH  090%=      5-min Rain = 0
KAM1 141041Z 16017G22KT 18/16 A2993 RMK A01 T01770161  RH  090%=      5-min Rain = 0
KAM1 141042Z 16017G22KT 18/16 A2993 RMK A01 T01770161  RH  090%=      5-min Rain = 0
KAM1 141043Z 16017KT 18/16 A2993 RMK A01 T01770161  RH  090%=      5-min Rain = 0
KAM1 141044Z 16017G22KT 18/16 A2993 RMK A01 T01770161  RH  090%=      5-min Rain = 0
KAM1 141045Z 16017G23KT 18/16 A2993 RMK A01 T01760160  RH  090%=      5-min Rain = 0
KAM1 141046Z 16015KT 18/16 A2993 RMK A01 T01760160  RH  090%=      5-min Rain = 0
KAM1 141047Z 16015KT 18/16 A2993 RMK A01 T01760161  RH  091%=      5-min Rain = 0
KAM1 141048Z 16016KT 18/16 A2993 RMK A01 T01750160  RH  091%=      5-min Rain = 0
KAM1 141049Z 16015KT 18/16 A2993 RMK A01 T01750161  RH  091%=      5-min Rain = 0
KAM1 141050Z 16016KT 18/16 A2993 RMK A01 T01750161  RH  092%=      5-min Rain = 0
KAM1 141051Z 16017KT 18/16 A2993 RMK A01 T01750161  RH  091%=      5-min Rain = 0
KAM1 141052Z 16018G23KT 18/16 A2993 RMK A01 T01750160  RH  091%=      5-min Rain = 0
KAM1 141053Z 16015KT 18/16 A2993 RMK A01 T01760160  RH  091%=      5-min Rain = 0
KAM1 141054Z 15013KT 18/16 A2993 RMK A01 T01750161  RH  091%=      5-min Rain = 0
KAM1 141055Z 15016KT 17/16 A2993 RMK A01 T01740161  RH  092%=      5-min Rain = 0
KAM1 141056Z 15016G21KT 17/16 A2993 RMK A01 T01740161  RH  092%=      5-min Rain = 0
KAM1 141057Z 16016G22KT 17/16 A2993 RMK A01 T01730161  RH  092%=      5-min Rain = 0
KAM1 141058Z 15017KT 17/16 A2993 RMK A01 T01730161  RH  092%=      5-min Rain = 0
KAM1 141059Z 16016KT 17/16 A2993 RMK A01 T01730160  RH  092%=      5-min Rain = 0
KAM1 141100Z 16017KT 17/16 A2993 RMK A01 T01730161  RH  092%=      5-min Rain = 0
KAM1 141101Z 16015KT 17/16 A2993 RMK A01 T01730161  RH  093%=      5-min Rain = 0
KAM1 141102Z 15015KT 17/16 A2993 RMK A01 T01730161  RH  093%=      5-min Rain = 0
KAM1 141103Z 15014KT 17/16 A2993 RMK A01 T01720161  RH  093%=      5-min Rain = 0
KAM1 141104Z 16013G20KT 17/16 A2993 RMK A01 T01720161  RH  094%=      5-min Rain = 0
KAM1 141105Z 16018KT 17/16 A2993 RMK A01 T01710161  RH  094%=      5-min Rain = 0
KAM1 141106Z 16015KT 17/16 A2993 RMK A01 T01710161  RH  094%=      5-min Rain = 0
KAM1 141107Z 16016G21KT 17/16 A2993 RMK A01 T01710161  RH  093%=      5-min Rain = 0
KAM1 141108Z 15015KT 17/16 A2993 RMK A01 T01720161  RH  093%=      5-min Rain = 0
KAM1 141109Z 15017KT 17/16 A2993 RMK A01 T01710161  RH  093%=      5-min Rain = 0
KAM1 141110Z 16014KT 17/16 A2993 RMK A01 T01710161  RH  094%=      5-min Rain = 0
KAM1 141111Z 16015KT 17/16 A2993 RMK A01 T01710162  RH  094%=      5-min Rain = 0
KAM1 141112Z 16017KT 17/16 A2993 RMK A01 T01710161  RH  094%=      5-min Rain = 0
KAM1 141113Z 16015KT 17/16 A2993 RMK A01 T01700161  RH  094%=      5-min Rain = 0
KAM1 141114Z 16016G21KT 17/16 A2993 RMK A01 T01700161  RH  094%=      5-min Rain = 0
KAM1 141115Z 16015KT 17/16 A2993 RMK A01 T01700161  RH  094%=      5-min Rain = 0
KAM1 141116Z 16017KT 17/16 A2993 RMK A01 T01700161  RH  095%=      5-min Rain = 0
KAM1 141117Z 16016KT 17/16 A2993 RMK A01 T01700161  RH  094%=      5-min Rain = 0
KAM1 141118Z 16014G19KT 17/16 A2993 RMK A01 T01700161  RH  094%=      5-min Rain = 0
KAM1 141119Z 17016KT 17/16 A2993 RMK A01 T01700161  RH  094%=      5-min Rain = 0
KAM1 141120Z 16013KT 17/16 A2993 RMK A01 T01690161  RH  094%=      5-min Rain = 0
KAM1 141121Z 16017KT 17/16 A2993 RMK A01 T01690161  RH  095%=      5-min Rain = 0
KAM1 141122Z 16014KT 17/16 A2993 RMK A01 T01690160  RH  095%=      5-min Rain = 0
KAM1 141123Z 16016KT 17/16 A2993 RMK A01 T01690161  RH  095%=      5-min Rain = 0
KAM1 141124Z 16013G18KT 17/16 A2993 RMK A01 T01690160  RH  095%=      5-min Rain = 0
KAM1 141125Z 16017KT 17/16 A2993 RMK A01 T01680160  RH  095%=      5-min Rain = 0
KAM1 141126Z 17016KT 17/16 A2993 RMK A01 T01680160  RH  095%=      5-min Rain = 0
KAM1 141127Z 16015KT 17/16 A2993 RMK A01 T01680160  RH  095%=      5-min Rain = 0
KAM1 141128Z 16017G23KT 17/16 A2993 RMK A01 T01680159  RH  095%=      5-min Rain = 0
KAM1 141129Z 17014G20KT 17/16 A2993 RMK A01 T01680160  RH  095%=      5-min Rain = 0
KAM1 141130Z 16015G20KT 17/16 A2993 RMK A01 T01670159  RH  095%=      5-min Rain = 0
KAM1 141131Z 16017KT 17/16 A2993 RMK A01 T01670159  RH  095%=      5-min Rain = 0
KAM1 141132Z 16017KT 17/16 A2993 RMK A01 T01670159  RH  095%=      5-min Rain = 0
KAM1 141133Z 16015KT 17/16 A2993 RMK A01 T01670158  RH  095%=      5-min Rain = 0
KAM1 141134Z 16016KT 17/16 A2993 RMK A01 T01670159  RH  095%=      5-min Rain = 0
KAM1 141135Z 16015KT 17/16 A2993 RMK A01 T01670159  RH  095%=      5-min Rain = 0
KAM1 141136Z 16012KT 17/16 A2993 RMK A01 T01670159  RH  095%=      5-min Rain = 0
KAM1 141137Z 16014KT 17/16 A2993 RMK A01 T01660159  RH  096%=      5-min Rain = 0
KAM1 141138Z 16014KT 17/16 A2993 RMK A01 T01650159  RH  096%=      5-min Rain = 0
KAM1 141139Z 16018KT 17/16 A2993 RMK A01 T01650159  RH  096%=      5-min Rain = 0
KAM1 141140Z 16015KT 17/16 A2993 RMK A01 T01650159  RH  096%=      5-min Rain = 0
KAM1 141141Z 16016G22KT 17/16 A2993 RMK A01 T01650159  RH  096%=      5-min Rain = 0
KAM1 141142Z 16016KT 17/16 A2993 RMK A01 T01650159  RH  096%=      5-min Rain = 0
KAM1 141143Z 16016KT 17/16 A2993 RMK A01 T01650159  RH  096%=      5-min Rain = 0
KAM1 141144Z 16016G21KT 17/16 A2993 RMK A01 T01660159  RH  096%=      5-min Rain = 0
KAM1 141145Z 16015KT 17/16 A2993 RMK A01 T01660158  RH  095%=      5-min Rain = 0
KAM1 141146Z 16013KT 17/16 A2994 RMK A01 T01660159  RH  095%=      5-min Rain = 0
KAM1 141147Z 16014KT 17/16 A2994 RMK A01 T01660159  RH  096%=      5-min Rain = 0
KAM1 141148Z 16013KT 17/16 A2994 RMK A01 T01660160  RH  096%=      5-min Rain = 0
KAM1 141149Z 16014KT 17/16 A2994 RMK A01 T01650160  RH  096%=      5-min Rain = 0
KAM1 141150Z 16013KT 17/16 A2994 RMK A01 T01650160  RH  097%=      5-min Rain = 0
KAM1 141151Z 16015KT 17/16 A2994 RMK A01 T01650160  RH  097%=      5-min Rain = 0
KAM1 141152Z 16015KT 17/16 A2994 RMK A01 T01650160  RH  096%=      5-min Rain = 0
KAM1 141153Z 16013KT 17/16 A2994 RMK A01 T01660160  RH  096%=      5-min Rain = 0
KAM1 141154Z 16015KT 17/16 A2994 RMK A01 T01660160  RH  096%=      5-min Rain = 0
KAM1 141155Z 16016KT 17/16 A2994 RMK A01 T01660160  RH  096%=      5-min Rain = 0
KAM1 141156Z 16013KT 17/16 A2994 RMK A01 T01670160  RH  095%=      5-min Rain = 0
KAM1 141157Z 16014KT 17/16 A2994 RMK A01 T01670160  RH  095%=      5-min Rain = 0
KAM1 141158Z 16014G20KT 17/16 A2994 RMK A01 T01670160  RH  096%=      5-min Rain = 0
KAM1 141159Z 16012KT 17/16 A2994 RMK A01 T01670160  RH  096%=      5-min Rain = 0
KAM1 141200Z 16015KT 17/16 A2994 RMK A01 T01670160  RH  096%=      5-min Rain = 0
KAM1 141201Z 16014KT 17/16 A2994 RMK A01 T01670160  RH  096%=      5-min Rain = 0
KAM1 141202Z 16012KT 17/16 A2994 RMK A01 T01670160  RH  096%=      5-min Rain = 0
KAM1 141203Z 15015KT 17/16 A2994 RMK A01 T01670160  RH  096%=      5-min Rain = 0
KAM1 141204Z 16016KT 17/16 A2994 RMK A01 T01670160  RH  095%=      5-min Rain = 0
KAM1 141205Z 15014G20KT 17/16 A2994 RMK A01 T01680160  RH  095%=      5-min Rain = 0
KAM1 141206Z 15013KT 17/16 A2994 RMK A01 T01680160  RH  095%=      5-min Rain = 0
KAM1 141207Z 15014KT 17/16 A2994 RMK A01 T01680160  RH  095%=      5-min Rain = 0
KAM1 141208Z 15013KT 17/16 A2994 RMK A01 T01670160  RH  096%=      5-min Rain = 0
KAM1 141209Z 15014KT 17/16 A2995 RMK A01 T01670161  RH  096%=      5-min Rain = 0
KAM1 141210Z 15011KT 17/16 A2995 RMK A01 T01670160  RH  096%=      5-min Rain = 0
KAM1 141211Z 15012KT 17/16 A2995 RMK A01 T01670161  RH  096%=      5-min Rain = 0
KAM1 141212Z 15011KT 17/16 A2995 RMK A01 T01670161  RH  096%=      5-min Rain = 0
KAM1 141213Z 15012KT 17/16 A2995 RMK A01 T01670161  RH  096%=      5-min Rain = 0
KAM1 141214Z 15011KT 17/16 A2995 RMK A01 T01670161  RH  096%=      5-min Rain = 0
KAM1 141215Z 15010KT 17/16 A2995 RMK A01 T01670161  RH  096%=      5-min Rain = 0
KAM1 141216Z 14009KT 17/16 A2995 RMK A01 T01670161  RH  096%=      5-min Rain = 0
KAM1 141217Z 15009KT 17/16 A2995 RMK A01 T01670161  RH  096%=      5-min Rain = 0
KAM1 141218Z 14009KT 17/16 A2996 RMK A01 T01670162  RH  096%=      5-min Rain = 0
KAM1 141219Z 14008G13KT 17/16 A2996 RMK A01 T01670162  RH  097%=      5-min Rain = 0
KAM1 141220Z 14008KT 17/16 A2996 RMK A01 T01670162  RH  097%=      5-min Rain = 0
KAM1 141221Z 14008KT 17/16 A2996 RMK A01 T01670163  RH  097%=      5-min Rain = 0
KAM1 141222Z 14009KT 17/16 A2996 RMK A01 T01670162  RH  097%=      5-min Rain = 0
KAM1 141223Z 15010KT 17/16 A2996 RMK A01 T01670162  RH  097%=      5-min Rain = 0
KAM1 141224Z 15008KT 17/16 A2996 RMK A01 T01670162  RH  097%=      5-min Rain = 0
KAM1 141225Z 15009KT 17/16 A2996 RMK A01 T01670162  RH  097%=      5-min Rain = 0
KAM1 141226Z 15008KT 17/16 A2996 RMK A01 T01670162  RH  096%=      5-min Rain = 0
KAM1 141227Z 15009KT 17/16 A2996 RMK A01 T01670162  RH  097%=      5-min Rain = 0
KAM1 141228Z 16007KT 17/16 A2996 RMK A01 T01670163  RH  097%=      5-min Rain = 0
KAM1 141229Z 15010KT 17/16 A2996 RMK A01 T01670163  RH  098%=      5-min Rain = 0
KAM1 141230Z 15010KT 17/16 A2996 RMK A01 T01660163  RH  098%=      5-min Rain = 0
KAM1 141231Z 15010KT 17/16 A2996 RMK A01 T01660164  RH  098%=      5-min Rain = 0
KAM1 141232Z 15011KT 17/16 A2996 RMK A01 T01660163  RH  098%=      5-min Rain = 0
KAM1 141233Z 16011KT 17/16 A2996 RMK A01 T01660163  RH  098%=      5-min Rain = 0
KAM1 141234Z 16012KT 17/16 A2996 RMK A01 T01660163  RH  098%=      5-min Rain = 0
KAM1 141235Z 16011KT 17/16 A2995 RMK A01 T01660163  RH  099%=      5-min Rain = 0
KAM1 141236Z 16011KT 17/16 A2995 RMK A01 T01660164  RH  099%=      5-min Rain = 0
KAM1 141237Z 16012KT 17/16 A2995 RMK A01 T01660164  RH  099%=      5-min Rain = 0
KAM1 141238Z 16010KT 17/16 A2995 RMK A01 T01660164  RH  099%=      5-min Rain = 0
KAM1 141239Z 16012KT 17/17 A2995 RMK A01 T01660165  RH  099%=      5-min Rain = 0
KAM1 141240Z 16010KT 17/16 A2995 RMK A01 T01660164  RH  099%=      5-min Rain = 0
KAM1 141241Z 16010KT 17/17 A2995 RMK A01 T01660165  RH  099%=      5-min Rain = 0
KAM1 141242Z 16010KT 17/16 A2995 RMK A01 T01670164  RH  098%=      5-min Rain = 0
KAM1 141243Z 16008KT 17/17 A2996 RMK A01 T01670165  RH  098%=      5-min Rain = 0
KAM1 141244Z 16009KT 17/17 A2996 RMK A01 T01670165  RH  098%=      5-min Rain = 0
KAM1 141245Z 16009KT 17/16 A2996 RMK A01 T01680164  RH  098%=      5-min Rain = 0
KAM1 141246Z 16008KT 17/17 A2996 RMK A01 T01680165  RH  098%=      5-min Rain = 0
KAM1 141247Z 16007KT 17/17 A2996 RMK A01 T01680165  RH  098%=      5-min Rain = 0
KAM1 141248Z 17008KT 17/17 A2996 RMK A01 T01680165  RH  098%=      5-min Rain = 0
KAM1 141249Z 16009KT 17/17 A2996 RMK A01 T01680165  RH  098%=      5-min Rain = 0
KAM1 141250Z 16009KT 17/17 A2996 RMK A01 T01690165  RH  098%=      5-min Rain = 0
KAM1 141251Z 17010KT 17/17 A2995 RMK A01 T01690165  RH  097%=      5-min Rain = 0
KAM1 141252Z 17011KT 17/17 A2995 RMK A01 T01700165  RH  097%=      5-min Rain = 0
KAM1 141253Z 17012KT 17/17 A2995 RMK A01 T01700166  RH  097%=      5-min Rain = 0
KAM1 141254Z 17010KT 17/17 A2995 RMK A01 T01700166  RH  097%=      5-min Rain = 0
KAM1 141255Z 17010KT 17/17 A2995 RMK A01 T01700166  RH  098%=      5-min Rain = 0
KAM1 141256Z 17010KT 17/17 A2995 RMK A01 T01700167  RH  098%=      5-min Rain = 0
KAM1 141257Z 18009KT 17/17 A2995 RMK A01 T01700167  RH  098%=      5-min Rain = 0
KAM1 141258Z 17010KT 17/17 A2995 RMK A01 T01710167  RH  098%=      5-min Rain = 0
KAM1 141259Z 17010KT 17/17 A2995 RMK A01 T01710167  RH  097%=      5-min Rain = 0
KAM1 141300Z 17007KT 17/17 A2995 RMK A01 T01720167  RH  097%=      5-min Rain = 0
KAM1 141301Z 17009KT 17/17 A2995 RMK A01 T01730167  RH  097%=      5-min Rain = 0
KAM1 141302Z 17009KT 17/17 A2995 RMK A01 T01730167  RH  096%=      5-min Rain = 0
KAM1 141303Z 17009KT 17/17 A2995 RMK A01 T01740168  RH  097%=      5-min Rain = 0
KAM1 141304Z 17008KT 17/17 A2995 RMK A01 T01740168  RH  096%=      5-min Rain = 0
KAM1 141305Z 17009KT 18/17 A2995 RMK A01 T01750169  RH  096%=      5-min Rain = 0
KAM1 141306Z 16010KT 18/17 A2995 RMK A01 T01760169  RH  096%=      5-min Rain = 0
KAM1 141307Z 17008KT 18/17 A2995 RMK A01 T01760169  RH  095%=      5-min Rain = 0
KAM1 141308Z 17008KT 18/17 A2995 RMK A01 T01770170  RH  095%=      5-min Rain = 0
KAM1 141309Z 17009KT 18/17 A2995 RMK A01 T01780170  RH  095%=      5-min Rain = 0
KAM1 141310Z 17008KT 18/17 A2995 RMK A01 T01790170  RH  095%=      5-min Rain = 0
KAM1 141311Z 17009KT 18/17 A2995 RMK A01 T01800171  RH  095%=      5-min Rain = 0
KAM1 141312Z 17010KT 18/17 A2995 RMK A01 T01810170  RH  094%=      5-min Rain = 0
KAM1 141313Z 17009KT 18/17 A2995 RMK A01 T01810170  RH  093%=      5-min Rain = 0
KAM1 141314Z 17009KT 18/17 A2995 RMK A01 T01810171  RH  094%=      5-min Rain = 0
KAM1 141315Z 18008KT 18/17 A2995 RMK A01 T01820172  RH  094%=      5-min Rain = 0
KAM1 141316Z 18008KT 18/17 A2995 RMK A01 T01830173  RH  094%=      5-min Rain = 0
KAM1 141317Z 18009KT 18/17 A2995 RMK A01 T01830173  RH  093%=      5-min Rain = 0
KAM1 141318Z 17010KT 18/17 A2995 RMK A01 T01840173  RH  093%=      5-min Rain = 0
KAM1 141319Z 18010KT 18/17 A2995 RMK A01 T01840172  RH  092%=      5-min Rain = 0
KAM1 141320Z 18010KT 18/17 A2995 RMK A01 T01840172  RH  093%=      5-min Rain = 0
KAM1 141321Z 18010KT 18/17 A2994 RMK A01 T01840173  RH  093%=      5-min Rain = 0
KAM1 141322Z 18011KT 19/18 A2994 RMK A01 T01850175  RH  094%=      5-min Rain = 0
KAM1 141323Z 18010KT 19/17 A2994 RMK A01 T01860174  RH  093%=      5-min Rain = 0
KAM1 141324Z 18011KT 19/18 A2994 RMK A01 T01860176  RH  094%=      5-min Rain = 0
KAM1 141325Z 18011KT 19/18 A2994 RMK A01 T01880177  RH  094%=      5-min Rain = 0
KAM1 141326Z 18013KT 19/17 A2994 RMK A01 T01880174  RH  092%=      5-min Rain = 0
KAM1 141327Z 18011KT 19/18 A2994 RMK A01 T01880176  RH  092%=      5-min Rain = 0
KAM1 141328Z 18014KT 19/18 A2994 RMK A01 T01890176  RH  092%=      5-min Rain = 0
KAM1 141329Z 19012KT 19/18 A2994 RMK A01 T01890177  RH  092%=      5-min Rain = 0
KAM1 141330Z 19013KT 19/18 A2994 RMK A01 T01890177  RH  093%=      5-min Rain = 0
KAM1 141331Z 19014KT 19/18 A2994 RMK A01 T01900178  RH  093%=      5-min Rain = 0
KAM1 141332Z 19012KT 19/18 A2994 RMK A01 T01890178  RH  093%=      5-min Rain = 0
KAM1 141333Z 19013KT 19/18 A2994 RMK A01 T01890178  RH  093%=      5-min Rain = 0
KAM1 141334Z 19012KT 19/18 A2994 RMK A01 T01890179  RH  094%=      5-min Rain = 0
KAM1 141335Z 19014KT 19/18 A2994 RMK A01 T01900180  RH  093%=      5-min Rain = 0
KAM1 141336Z 19012KT 19/18 A2994 RMK A01 T01920180  RH  093%=      5-min Rain = 0
KAM1 141337Z 19015KT 19/18 A2994 RMK A01 T01920181  RH  093%=      5-min Rain = 0
KAM1 141338Z 19013KT 19/18 A2994 RMK A01 T01930182  RH  093%=      5-min Rain = 0
KAM1 141339Z 19016KT 19/18 A2994 RMK A01 T01940182  RH  093%=      5-min Rain = 0
KAM1 141340Z 19013KT 20/18 A2994 RMK A01 T01950182  RH  092%=      5-min Rain = 0
KAM1 141341Z 19017KT 20/18 A2994 RMK A01 T01960183  RH  092%=      5-min Rain = 0
KAM1 141342Z 19017KT 20/18 A2994 RMK A01 T01970182  RH  091%=      5-min Rain = 0
KAM1 141343Z 19015KT 20/18 A2994 RMK A01 T01980182  RH  091%=      5-min Rain = 0
KAM1 141344Z 19016KT 20/18 A2994 RMK A01 T01980183  RH  091%=      5-min Rain = 0
KAM1 141345Z 18015G20KT 20/18 A2994 RMK A01 T01990184  RH  091%=      5-min Rain = 0
KAM1 141346Z 18015G20KT 20/19 A2994 RMK A01 T01990185  RH  091%=      5-min Rain = 0
KAM1 141347Z 18019KT 20/18 A2994 RMK A01 T02000183  RH  090%=      5-min Rain = 0
KAM1 141348Z 18016KT 20/18 A2994 RMK A01 T02000182  RH  089%=      5-min Rain = 0
KAM1 141349Z 19016KT 20/18 A2994 RMK A01 T02000184  RH  090%=      5-min Rain = 0
KAM1 141350Z 19014KT 20/18 A2994 RMK A01 T02010184  RH  090%=      5-min Rain = 0
KAM1 141351Z 19012KT 20/19 A2994 RMK A01 T02010185  RH  091%=      5-min Rain = 0
KAM1 141352Z 19012KT 20/19 A2994 RMK A01 T02020186  RH  091%=      5-min Rain = 0
KAM1 141353Z 19013KT 20/19 A2994 RMK A01 T02030188  RH  091%=      5-min Rain = 0
KAM1 141354Z 19013KT 20/19 A2994 RMK A01 T02040188  RH  091%=      5-min Rain = 0
KAM1 141355Z 19011G16KT 21/19 A2994 RMK A01 T02050188  RH  090%=      5-min Rain = 0
KAM1 141356Z 19014G19KT 21/19 A2994 RMK A01 T02060191  RH  091%=      5-min Rain = 0
KAM1 141357Z 19018KT 21/19 A2993 RMK A01 T02070185  RH  087%=      5-min Rain = 0
KAM1 141358Z 18016KT 21/19 A2993 RMK A01 T02060185  RH  087%=      5-min Rain = 0
KAM1 141359Z 19016KT 21/19 A2993 RMK A01 T02060185  RH  088%=      5-min Rain = 0
KAM1 141400Z 19013KT 21/19 A2993 RMK A01 T02060187  RH  089%=      5-min Rain = 0
KAM1 141401Z 19015G21KT 21/19 A2993 RMK A01 T02070188  RH  089%=      5-min Rain = 0
KAM1 141402Z 18017KT 21/19 A2993 RMK A01 T02070186  RH  087%=      5-min Rain = 0
KAM1 141403Z 19017KT 21/19 A2993 RMK A01 T02080185  RH  087%=      5-min Rain = 0
KAM1 141404Z 20016KT 21/19 A2993 RMK A01 T02080185  RH  087%=      5-min Rain = 0
KAM1 141405Z 20013KT 21/19 A2993 RMK A01 T02090188  RH  088%=      5-min Rain = 0
KAM1 141406Z 20015KT 21/19 A2993 RMK A01 T02100189  RH  088%=      5-min Rain = 0
KAM1 141407Z 20015KT 21/19 A2993 RMK A01 T02110186  RH  086%=      5-min Rain = 0
KAM1 141408Z 20017KT 21/19 A2993 RMK A01 T02120186  RH  085%=      5-min Rain = 0
KAM1 141409Z 19018KT 21/19 A2993 RMK A01 T02120186  RH  085%=      5-min Rain = 0
KAM1 141410Z 20012G17KT 21/19 A2993 RMK A01 T02130186  RH  085%=      5-min Rain = 0
KAM1 141411Z 19016G21KT 21/19 A2993 RMK A01 T02140188  RH  085%=      5-min Rain = 0
KAM1 141412Z 20021G26KT 22/18 A2993 RMK A01 T02150184  RH  083%=      5-min Rain = 0
KAM1 141413Z 19020G25KT 22/18 A2993 RMK A01 T02150182  RH  081%=      5-min Rain = 0
KAM1 141414Z 20021KT 22/18 A2993 RMK A01 T02160181  RH  081%=      5-min Rain = 0
KAM1 141415Z 20014KT 22/18 A2993 RMK A01 T02160183  RH  082%=      5-min Rain = 0
KAM1 141416Z 20017KT 22/18 A2993 RMK A01 T02170184  RH  082%=      5-min Rain = 0
KAM1 141417Z 20017KT 22/18 A2993 RMK A01 T02170183  RH  081%=      5-min Rain = 0
KAM1 141418Z 20015KT 22/18 A2993 RMK A01 T02180183  RH  081%=      5-min Rain = 0
KAM1 141419Z 20014KT 22/19 A2993 RMK A01 T02190185  RH  081%=      5-min Rain = 0
KAM1 141420Z 20014G19KT 22/19 A2993 RMK A01 T02200185  RH  081%=      5-min Rain = 0
KAM1 141421Z 20018KT 22/18 A2993 RMK A01 T02210183  RH  079%=      5-min Rain = 0
KAM1 141422Z 20020KT 22/18 A2993 RMK A01 T02210179  RH  077%=      5-min Rain = 0
KAM1 141423Z 21018KT 22/18 A2993 RMK A01 T02210179  RH  077%=      5-min Rain = 0
KAM1 141424Z 20020G25KT 22/18 A2993 RMK A01 T02210179  RH  077%=      5-min Rain = 0
KAM1 141425Z 20019KT 22/18 A2993 RMK A01 T02220176  RH  075%=      5-min Rain = 0
KAM1 141426Z 21016KT 22/18 A2993 RMK A01 T02230179  RH  076%=      5-min Rain = 0
KAM1 141427Z 20017KT 22/18 A2993 RMK A01 T02230178  RH  075%=      5-min Rain = 0
KAM1 141428Z 20016G21KT 22/18 A2993 RMK A01 T02240180  RH  076%=      5-min Rain = 0
KAM1 141429Z 21015G23KT 23/18 A2993 RMK A01 T02250180  RH  076%=      5-min Rain = 0
KAM1 141430Z 21019KT 23/18 A2993 RMK A01 T02260177  RH  074%=      5-min Rain = 0
KAM1 141431Z 20014KT 23/18 A2993 RMK A01 T02260180  RH  075%=      5-min Rain = 0
KAM1 141432Z 20016KT 23/18 A2993 RMK A01 T02260181  RH  076%=      5-min Rain = 0
KAM1 141433Z 21018G23KT 23/18 A2993 RMK A01 T02260179  RH  075%=      5-min Rain = 0
KAM1 141434Z 20016KT 23/18 A2993 RMK A01 T02260177  RH  074%=      5-min Rain = 0
KAM1 141435Z 20018KT 23/18 A2993 RMK A01 T02260177  RH  074%=      5-min Rain = 0
KAM1 141436Z 20017KT 23/18 A2993 RMK A01 T02270176  RH  073%=      5-min Rain = 0
KAM1 141437Z 20017KT 23/18 A2993 RMK A01 T02270177  RH  073%=      5-min Rain = 0
KAM1 141438Z 19019KT 23/18 A2993 RMK A01 T02280175  RH  072%=      5-min Rain = 0
KAM1 141439Z 20016KT 23/18 A2993 RMK A01 T02290175  RH  072%=      5-min Rain = 0
KAM1 141440Z 21017KT 23/18 A2992 RMK A01 T02290175  RH  072%=      5-min Rain = 0
KAM1 141441Z 20017KT 23/18 A2993 RMK A01 T02300175  RH  071%=      5-min Rain = 0
KAM1 141442Z 21017KT 23/17 A2992 RMK A01 T02310172  RH  069%=      5-min Rain = 0
KAM1 141443Z 21017KT 23/17 A2992 RMK A01 T02320170  RH  068%=      5-min Rain = 0
KAM1 141444Z 21015G20KT 23/17 A2992 RMK A01 T02320171  RH  069%=      5-min Rain = 0
KAM1 141445Z 20016G21KT 23/17 A2992 RMK A01 T02330173  RH  069%=      5-min Rain = 0
KAM1 141446Z 20018KT 23/17 A2992 RMK A01 T02340172  RH  068%=      5-min Rain = 0
KAM1 141447Z 21020KT 23/17 A2992 RMK A01 T02340168  RH  066%=      5-min Rain = 0
KAM1 141448Z 21017G22KT 23/17 A2992 RMK A01 T02340167  RH  066%=      5-min Rain = 0
KAM1 141449Z 21020KT 23/17 A2992 RMK A01 T02340168  RH  066%=      5-min Rain = 0
KAM1 141450Z 21019KT 24/17 A2992 RMK A01 T02350166  RH  065%=      5-min Rain = 0
KAM1 141451Z 21018KT 24/17 A2992 RMK A01 T02350166  RH  065%=      5-min Rain = 0
KAM1 141452Z 22018KT 24/17 A2992 RMK A01 T02360167  RH  065%=      5-min Rain = 0
KAM1 141453Z 21018G24KT 24/17 A2992 RMK A01 T02370166  RH  064%=      5-min Rain = 0
KAM1 141454Z 22018KT 24/16 A2992 RMK A01 T02370162  RH  063%=      5-min Rain = 0
KAM1 141455Z 22019KT 24/16 A2992 RMK A01 T02360164  RH  064%=      5-min Rain = 0
KAM1 141456Z 22019G24KT 24/16 A2992 RMK A01 T02360163  RH  064%=      5-min Rain = 0
KAM1 141457Z 21018KT 24/17 A2992 RMK A01 T02360166  RH  065%=      5-min Rain = 0
KAM1 141458Z 21019KT 24/17 A2992 RMK A01 T02360165  RH  064%=      5-min Rain = 0
KAM1 141459Z 21014KT 24/17 A2992 RMK A01 T02360167  RH  065%=      5-min Rain = 0
KAM1 141500Z 22017KT 24/17 A2992 RMK A01 T02370168  RH  065%=      5-min Rain = 0
KAM1 141501Z 22018KT 24/17 A2992 RMK A01 T02380166  RH  064%=      5-min Rain = 0
KAM1 141502Z 21017KT 24/17 A2992 RMK A01 T02380165  RH  063%=      5-min Rain = 0
KAM1 141503Z 21016G23KT 24/17 A2992 RMK A01 T02390168  RH  064%=      5-min Rain = 0
KAM1 141504Z 21015G22KT 24/17 A2992 RMK A01 T02390166  RH  064%=      5-min Rain = 0
KAM1 141505Z 21018KT 24/17 A2992 RMK A01 T02400167  RH  064%=      5-min Rain = 0
KAM1 141506Z 22017KT 24/17 A2992 RMK A01 T02400166  RH  063%=      5-min Rain = 0
KAM1 141507Z 21014KT 24/17 A2992 RMK A01 T02400168  RH  064%=      5-min Rain = 0
KAM1 141508Z 21017G24KT 24/17 A2992 RMK A01 T02400171  RH  065%=      5-min Rain = 0
KAM1 141509Z 21020KT 24/17 A2992 RMK A01 T02410166  RH  063%=      5-min Rain = 0
KAM1 141510Z 21019KT 24/16 A2992 RMK A01 T02410163  RH  062%=      5-min Rain = 0
KAM1 141511Z 21017KT 24/16 A2992 RMK A01 T02400164  RH  062%=      5-min Rain = 0
KAM1 141512Z 21013KT 24/17 A2992 RMK A01 T02390168  RH  064%=      5-min Rain = 0
KAM1 141513Z 21015KT 24/17 A2992 RMK A01 T02390167  RH  064%=      5-min Rain = 0
KAM1 141514Z 21016KT 24/17 A2992 RMK A01 T02390165  RH  063%=      5-min Rain = 0
KAM1 141515Z 20016KT 24/16 A2992 RMK A01 T02380164  RH  063%=      5-min Rain = 0
KAM1 141516Z 20017KT 24/16 A2992 RMK A01 T02380163  RH  063%=      5-min Rain = 0
KAM1 141517Z 21017KT 24/16 A2991 RMK A01 T02370163  RH  063%=      5-min Rain = 0
KAM1 141518Z 22016KT 24/16 A2991 RMK A01 T02370162  RH  063%=      5-min Rain = 0
KAM1 141519Z 21017KT 24/16 A2991 RMK A01 T02370162  RH  063%=      5-min Rain = 0
KAM1 141520Z 21018KT 24/16 A2991 RMK A01 T02370161  RH  063%=      5-min Rain = 0
KAM1 141521Z 21018KT 24/16 A2991 RMK A01 T02370160  RH  062%=      5-min Rain = 0
KAM1 141522Z 21016KT 24/16 A2991 RMK A01 T02360160  RH  062%=      5-min Rain = 0
KAM1 141523Z 21015KT 24/16 A2991 RMK A01 T02350162  RH  064%=      5-min Rain = 0
KAM1 141524Z 21016KT 24/16 A2991 RMK A01 T02350161  RH  063%=      5-min Rain = 0
KAM1 141525Z 21015G20KT 24/16 A2991 RMK A01 T02350162  RH  064%=      5-min Rain = 0
KAM1 141526Z 22016G21KT 24/16 A2991 RMK A01 T02350161  RH  063%=      5-min Rain = 0
KAM1 141527Z 22018KT 24/16 A2991 RMK A01 T02350160  RH  063%=      5-min Rain = 0
KAM1 141528Z 22013KT 24/16 A2991 RMK A01 T02350162  RH  064%=      5-min Rain = 0
KAM1 141529Z 22014KT 24/16 A2991 RMK A01 T02350163  RH  064%=      5-min Rain = 0
KAM1 141530Z 21013KT 24/17 A2991 RMK A01 T02370165  RH  064%=      5-min Rain = 0
KAM1 141531Z 22011KT 24/17 A2991 RMK A01 T02390165  RH  063%=      5-min Rain = 0
KAM1 141532Z 22016KT 24/17 A2991 RMK A01 T02410166  RH  063%=      5-min Rain = 0
KAM1 141533Z 22017KT 24/16 A2991 RMK A01 T02410163  RH  062%=      5-min Rain = 0
KAM1 141534Z 21016KT 24/16 A2991 RMK A01 T02420164  RH  062%=      5-min Rain = 0
KAM1 141535Z 21016KT 24/16 A2991 RMK A01 T02420164  RH  062%=      5-min Rain = 0
KAM1 141536Z 21016KT 24/16 A2991 RMK A01 T02420162  RH  061%=      5-min Rain = 0
KAM1 141537Z 21013KT 24/16 A2991 RMK A01 T02420164  RH  062%=      5-min Rain = 0
KAM1 141538Z 21012KT 24/17 A2991 RMK A01 T02420167  RH  063%=      5-min Rain = 0
KAM1 141539Z 21016KT 24/16 A2991 RMK A01 T02430164  RH  061%=      5-min Rain = 0
KAM1 141540Z 22016G21KT 24/16 A299 RMK A01 T02440162  RH  060%=      5-min Rain = 0
KAM1 141541Z 22018G23KT 25/16 A299 RMK A01 T02460161  RH  059%=      5-min Rain = 0
KAM1 141542Z 21016G21KT 25/16 A299 RMK A01 T02470161  RH  059%=      5-min Rain = 0
KAM1 141543Z 22018KT 25/16 A299 RMK A01 T02490162  RH  058%=      5-min Rain = 0
KAM1 141544Z 22015KT 25/16 A299 RMK A01 T02500162  RH  058%=      5-min Rain = 0
KAM1 141545Z 22014KT 25/17 A299 RMK A01 T02510165  RH  059%=      5-min Rain = 0
KAM1 141546Z 22015KT 25/17 A299 RMK A01 T02520166  RH  059%=      5-min Rain = 0
KAM1 141547Z 22016KT 25/17 A299 RMK A01 T02530167  RH  059%=      5-min Rain = 0
KAM1 141548Z 22015KT 25/17 A299 RMK A01 T02540166  RH  058%=      5-min Rain = 0
KAM1 141549Z 23018KT 25/16 A299 RMK A01 T02540164  RH  057%=      5-min Rain = 0
KAM1 141550Z 23017KT 25/16 A299 RMK A01 T02540159  RH  056%=      5-min Rain = 0
KAM1 141551Z 23017KT 26/15 A299 RMK A01 T02550154  RH  054%=      5-min Rain = 0
KAM1 141552Z 23015G21KT 26/16 A299 RMK A01 T02550157  RH  055%=      5-min Rain = 0
KAM1 141553Z 22014G19KT 26/16 A299 RMK A01 T02560164  RH  057%=      5-min Rain = 0
KAM1 141554Z 23015G21KT 26/16 A299 RMK A01 T02580163  RH  056%=      5-min Rain = 0
KAM1 141555Z 24020KT 26/16 A299 RMK A01 T02590155  RH  053%=      5-min Rain = 0
KAM1 141556Z 23016KT 26/16 A299 RMK A01 T02590157  RH  053%=      5-min Rain = 0
KAM1 141557Z 23019KT 26/16 A299 RMK A01 T02580157  RH  054%=      5-min Rain = 0
KAM1 141558Z 23016G22KT 26/16 A299 RMK A01 T02580155  RH  053%=      5-min Rain = 0
KAM1 141559Z 22016KT 26/16 A299 RMK A01 T02590157  RH  054%=      5-min Rain = 0
KAM1 141600Z 23018KT 26/16 A299 RMK A01 T02580157  RH  053%=      5-min Rain = 0
KAM1 141601Z 23020KT 26/16 A299 RMK A01 T02580155  RH  053%=      5-min Rain = 0
KAM1 141602Z 23017KT 26/15 A299 RMK A01 T02590153  RH  052%=      5-min Rain = 0
KAM1 141603Z 23016KT 26/16 A299 RMK A01 T02580155  RH  053%=      5-min Rain = 0
KAM1 141604Z 23015G20KT 26/16 A299 RMK A01 T02590158  RH  053%=      5-min Rain = 0
KAM1 141605Z 22020KT 26/16 A299 RMK A01 T02610155  RH  052%=      5-min Rain = 0
KAM1 141606Z 23016G22KT 26/16 A299 RMK A01 T02610155  RH  052%=      5-min Rain = 0
KAM1 141607Z 23018KT 26/16 A299 RMK A01 T02620156  RH  052%=      5-min Rain = 0
KAM1 141608Z 23018G23KT 26/16 A299 RMK A01 T02620155  RH  052%=      5-min Rain = 0
KAM1 141609Z 24015G21KT 26/16 A299 RMK A01 T02620155  RH  052%=      5-min Rain = 0
KAM1 141610Z 24017KT 26/16 A299 RMK A01 T02630155  RH  051%=      5-min Rain = 0
KAM1 141611Z 23016KT 26/16 A299 RMK A01 T02630158  RH  052%=      5-min Rain = 0
KAM1 141612Z 24017KT 26/15 A299 RMK A01 T02640154  RH  051%=      5-min Rain = 0
KAM1 141613Z 24017KT 27/16 A299 RMK A01 T02650155  RH  051%=      5-min Rain = 0
KAM1 141614Z 24017KT 27/16 A299 RMK A01 T02650155  RH  051%=      5-min Rain = 0
KAM1 141615Z 24019G24KT 26/15 A299 RMK A01 T02640152  RH  050%=      5-min Rain = 0
KAM1 141616Z 24020KT 26/15 A299 RMK A01 T02640151  RH  050%=      5-min Rain = 0
KAM1 141617Z 24016G21KT 26/15 A299 RMK A01 T02640154  RH  051%=      5-min Rain = 0
KAM1 141618Z 24017G22KT 27/16 A299 RMK A01 T02650155  RH  051%=      5-min Rain = 0
KAM1 141619Z 24017KT 27/15 A299 RMK A01 T02660153  RH  050%=      5-min Rain = 0
KAM1 141620Z 23017G22KT 27/16 A299 RMK A01 T02670156  RH  051%=      5-min Rain = 0
KAM1 141621Z 23019KT 27/15 A299 RMK A01 T02690153  RH  049%=      5-min Rain = 0
KAM1 141622Z 23019KT 27/15 A2989 RMK A01 T02690153  RH  049%=      5-min Rain = 0
KAM1 141623Z 24016KT 27/15 A2989 RMK A01 T02690153  RH  049%=      5-min Rain = 0
KAM1 141624Z 24019G24KT 27/15 A2989 RMK A01 T02700154  RH  049%=      5-min Rain = 0
KAM1 141625Z 24019KT 27/15 A299 RMK A01 T02700150  RH  048%=      5-min Rain = 0
KAM1 141626Z 24020KT 27/15 A2989 RMK A01 T02700149  RH  048%=      5-min Rain = 0
KAM1 141627Z 23017KT 27/15 A2989 RMK A01 T02700152  RH  048%=      5-min Rain = 0
KAM1 141628Z 24016G21KT 27/16 A2989 RMK A01 T02710157  RH  050%=      5-min Rain = 0
KAM1 141629Z 23014G20KT 27/16 A2989 RMK A01 T02720158  RH  050%=      5-min Rain = 0
KAM1 141630Z 23016KT 27/16 A2989 RMK A01 T02730159  RH  049%=      5-min Rain = 0
KAM1 141631Z 24017KT 27/16 A2989 RMK A01 T02740156  RH  048%=      5-min Rain = 0
KAM1 141632Z 24015KT 27/16 A2989 RMK A01 T02740159  RH  049%=      5-min Rain = 0
KAM1 141633Z 24016KT 28/16 A2989 RMK A01 T02750158  RH  049%=      5-min Rain = 0
KAM1 141634Z 23017KT 28/16 A2989 RMK A01 T02760159  RH  049%=      5-min Rain = 0
KAM1 141635Z 23015KT 28/16 A2989 RMK A01 T02770157  RH  048%=      5-min Rain = 0
KAM1 141636Z 24015G20KT 28/16 A2989 RMK A01 T02780163  RH  050%=      5-min Rain = 0
KAM1 141637Z 24014KT 28/16 A2989 RMK A01 T02790161  RH  049%=      5-min Rain = 0
KAM1 141638Z 22014G19KT 28/16 A2989 RMK A01 T02800164  RH  049%=      5-min Rain = 0
KAM1 141639Z 23018KT 28/16 A2989 RMK A01 T02810159  RH  047%=      5-min Rain = 0
KAM1 141640Z 23019KT 28/16 A2989 RMK A01 T02810156  RH  046%=      5-min Rain = 0
KAM1 141641Z 23015G20KT 28/15 A2989 RMK A01 T02810154  RH  046%=      5-min Rain = 0
KAM1 141642Z 23015KT 28/16 A2989 RMK A01 T02810157  RH  047%=      5-min Rain = 0
KAM1 141643Z 22017G22KT 28/15 A2989 RMK A01 T02830154  RH  046%=      5-min Rain = 0
KAM1 141644Z 23018G23KT 28/15 A2989 RMK A01 T02840150  RH  044%=      5-min Rain = 0
KAM1 141645Z 24017G23KT 29/15 A2989 RMK A01 T02860151  RH  044%=      5-min Rain = 0
KAM1 141646Z 25016KT 29/15 A2989 RMK A01 T02880150  RH  043%=      5-min Rain = 0
KAM1 141647Z 24018KT 29/15 A2989 RMK A01 T02900146  RH  041%=      5-min Rain = 0
KAM1 141648Z 24016G21KT 29/14 A2989 RMK A01 T02900144  RH  041%=      5-min Rain = 0
KAM1 141649Z 24019KT 29/14 A2989 RMK A01 T02910142  RH  040%=      5-min Rain = 0
KAM1 141650Z 24016KT 29/14 A2989 RMK A01 T02900137  RH  039%=      5-min Rain = 0
KAM1 141651Z 25018KT 29/14 A2989 RMK A01 T02870139  RH  040%=      5-min Rain = 0
KAM1 141652Z 25016KT 29/14 A2989 RMK A01 T02850139  RH  041%=      5-min Rain = 0
KAM1 141653Z 25020KT 29/14 A2989 RMK A01 T02850140  RH  041%=      5-min Rain = 0
KAM1 141654Z 25015G21KT 29/14 A2989 RMK A01 T02850135  RH  040%=      5-min Rain = 0
KAM1 141655Z 24018KT 29/14 A2989 RMK A01 T02850138  RH  041%=      5-min Rain = 0
KAM1 141656Z 25018KT 28/14 A2989 RMK A01 T02840135  RH  040%=      5-min Rain = 0
KAM1 141657Z 25014G19KT 28/14 A2989 RMK A01 T02830136  RH  041%=      5-min Rain = 0
KAM1 141658Z 25015G20KT 29/14 A2989 RMK A01 T02850144  RH  042%=      5-min Rain = 0
KAM1 141659Z 25018KT 29/14 A2989 RMK A01 T02880141  RH  041%=      5-min Rain = 0
KAM1 141700Z 26016G21KT 29/14 A2989 RMK A01 T02910140  RH  040%=      5-min Rain = 0
KAM1 141701Z 26018KT 29/14 A2989 RMK A01 T02940139  RH  039%=      5-min Rain = 0
KAM1 141702Z 26018KT 30/14 A2989 RMK A01 T02950139  RH  038%=      5-min Rain = 0
KAM1 141703Z 26016KT 30/14 A2989 RMK A01 T02950138  RH  038%=      5-min Rain = 0
KAM1 141704Z 26017KT 30/14 A2989 RMK A01 T02960138  RH  038%=      5-min Rain = 0
KAM1 141705Z 26016KT 30/14 A2989 RMK A01 T02970141  RH  039%=      5-min Rain = 0
KAM1 141706Z 25018KT 30/14 A2988 RMK A01 T02980137  RH  037%=      5-min Rain = 0
KAM1 141707Z 25017KT 30/14 A2988 RMK A01 T02980141  RH  038%=      5-min Rain = 0
KAM1 141708Z 25019G24KT 30/14 A2988 RMK A01 T02990139  RH  038%=      5-min Rain = 0
KAM1 141709Z 25017KT 30/13 A2988 RMK A01 T02990133  RH  036%=      5-min Rain = 0
KAM1 141710Z 25018G23KT 30/14 A2988 RMK A01 T02980139  RH  038%=      5-min Rain = 0
KAM1 141711Z 25017KT 30/14 A2988 RMK A01 T02980137  RH  037%=      5-min Rain = 0
KAM1 141712Z 25017G23KT 30/14 A2988 RMK A01 T02980139  RH  038%=      5-min Rain = 0
KAM1 141713Z 24020KT 30/14 A2988 RMK A01 T02970136  RH  037%=      5-min Rain = 0
KAM1 141714Z 25016G21KT 30/14 A2988 RMK A01 T02970137  RH  038%=      5-min Rain = 0
KAM1 141715Z 25020KT 30/14 A2988 RMK A01 T02980139  RH  038%=      5-min Rain = 0
KAM1 141716Z 26019KT 30/14 A2988 RMK A01 T02980135  RH  037%=      5-min Rain = 0
KAM1 141717Z 26019KT 30/14 A2988 RMK A01 T02980135  RH  037%=      5-min Rain = 0
KAM1 141718Z 25017KT 30/13 A2988 RMK A01 T02990133  RH  036%=      5-min Rain = 0
KAM1 141719Z 25019G24KT 30/14 A2988 RMK A01 T03000135  RH  036%=      5-min Rain = 0
KAM1 141720Z 24019G25KT 30/14 A2988 RMK A01 T03020141  RH  038%=      5-min Rain = 0
KAM1 141721Z 25018G23KT 30/13 A2988 RMK A01 T03030131  RH  035%=      5-min Rain = 0
KAM1 141722Z 26017KT 30/13 A2988 RMK A01 T03030133  RH  035%=      5-min Rain = 0
KAM1 141723Z 24014KT 30/14 A2988 RMK A01 T03030138  RH  037%=      5-min Rain = 0
KAM1 141724Z 24017KT 30/14 A2988 RMK A01 T03030141  RH  037%=      5-min Rain = 0
KAM1 141725Z 24020KT 31/13 A2988 RMK A01 T03050133  RH  035%=      5-min Rain = 0
KAM1 141726Z 25018KT 31/13 A2988 RMK A01 T03050133  RH  035%=      5-min Rain = 0
KAM1 141727Z 25014KT 31/14 A2988 RMK A01 T03050138  RH  036%=      5-min Rain = 0
KAM1 141728Z 24017KT 31/14 A2988 RMK A01 T03060137  RH  036%=      5-min Rain = 0
KAM1 141729Z 25015KT 31/14 A2988 RMK A01 T03060137  RH  036%=      5-min Rain = 0
KAM1 141730Z 26014G20KT 31/14 A2988 RMK A01 T03060144  RH  037%=      5-min Rain = 0
KAM1 141731Z 26011KT 31/14 A2988 RMK A01 T03060141  RH  037%=      5-min Rain = 0
KAM1 141732Z 25016G22KT 31/15 A2988 RMK A01 T03050145  RH  038%=      5-min Rain = 0
KAM1 141733Z 25014G19KT 31/14 A2988 RMK A01 T03050135  RH  036%=      5-min Rain = 0
KAM1 141734Z 25016KT 30/14 A2988 RMK A01 T03040143  RH  037%=      5-min Rain = 0
KAM1 141735Z 26013KT 30/14 A2988 RMK A01 T03040140  RH  037%=      5-min Rain = 0
KAM1 141736Z 25015KT 30/14 A2988 RMK A01 T03020138  RH  037%=      5-min Rain = 0
KAM1 141737Z 25014KT 30/13 A2988 RMK A01 T03000132  RH  036%=      5-min Rain = 0
KAM1 141738Z 26013KT 30/13 A2988 RMK A01 T02970132  RH  036%=      5-min Rain = 0
KAM1 141739Z 25013G21KT 30/14 A2988 RMK A01 T02950138  RH  038%=      5-min Rain = 0
KAM1 141740Z 26015G20KT 29/13 A2988 RMK A01 T02930129  RH  036%=      5-min Rain = 0
KAM1 141741Z 26013KT 29/13 A2988 RMK A01 T02920132  RH  037%=      5-min Rain = 0
KAM1 141742Z 26012KT 29/14 A2988 RMK A01 T02910137  RH  039%=      5-min Rain = 0
KAM1 141743Z 26014G19KT 29/13 A2988 RMK A01 T02910133  RH  038%=      5-min Rain = 0
KAM1 141744Z 24015KT 29/13 A2988 RMK A01 T02910134  RH  038%=      5-min Rain = 0
KAM1 141745Z 25013KT 29/13 A2988 RMK A01 T02910132  RH  038%=      5-min Rain = 0
KAM1 141746Z 25013KT 29/13 A2988 RMK A01 T02920133  RH  038%=      5-min Rain = 0
KAM1 141747Z 25014KT 29/14 A2988 RMK A01 T02930137  RH  038%=      5-min Rain = 0
KAM1 141748Z 25014G19KT 30/13 A2988 RMK A01 T02950130  RH  036%=      5-min Rain = 0
KAM1 141749Z 24013G20KT 30/14 A2988 RMK A01 T02970139  RH  038%=      5-min Rain = 0
KAM1 141750Z 25015KT 30/13 A2988 RMK A01 T03000133  RH  036%=      5-min Rain = 0
KAM1 141751Z 25013KT 30/14 A2988 RMK A01 T03020142  RH  037%=      5-min Rain = 0
KAM1 141752Z 25012KT 31/14 A2988 RMK A01 T03050143  RH  037%=      5-min Rain = 0
KAM1 141753Z 24013KT 31/15 A2987 RMK A01 T03070146  RH  038%=      5-min Rain = 0
KAM1 141754Z 25013KT 31/14 A2987 RMK A01 T03090141  RH  036%=      5-min Rain = 0
KAM1 141755Z 24016KT 31/14 A2987 RMK A01 T03090136  RH  035%=      5-min Rain = 0
KAM1 141756Z 24015KT 31/14 A2987 RMK A01 T03090135  RH  035%=      5-min Rain = 0
KAM1 141757Z 23015KT 31/14 A2987 RMK A01 T03080136  RH  035%=      5-min Rain = 0
KAM1 141758Z 22017KT 31/14 A2987 RMK A01 T03090137  RH  035%=      5-min Rain = 0
KAM1 141759Z 23013KT 31/14 A2987 RMK A01 T03110143  RH  036%=      5-min Rain = 0
KAM1 141800Z 23017KT 31/14 A2987 RMK A01 T03120135  RH  034%=      5-min Rain = 0
KAM1 141801Z 23013KT 31/13 A2987 RMK A01 T03120132  RH  033%=      5-min Rain = 0
KAM1 141802Z 25011KT 31/14 A2987 RMK A01 T03120140  RH  035%=      5-min Rain = 0
KAM1 141803Z 26014KT 31/14 A2987 RMK A01 T03140139  RH  035%=      5-min Rain = 0
KAM1 141804Z 25014KT 32/13 A2987 RMK A01 T03150134  RH  033%=      5-min Rain = 0
KAM1 141805Z 25015KT 31/13 A2987 RMK A01 T03140134  RH  033%=      5-min Rain = 0
KAM1 141806Z 25013KT 32/13 A2987 RMK A01 T03150134  RH  033%=      5-min Rain = 0
KAM1 141807Z 25010G15KT 32/14 A2987 RMK A01 T03160143  RH  035%=      5-min Rain = 0
KAM1 141808Z 25012KT 32/14 A2987 RMK A01 T03180142  RH  034%=      5-min Rain = 0
KAM1 141809Z 26014KT 32/15 A2987 RMK A01 T03190145  RH  035%=      5-min Rain = 0
KAM1 141810Z 25011G19KT 32/15 A2987 RMK A01 T03190146  RH  035%=      5-min Rain = 0
KAM1 141811Z 25011KT 32/15 A2987 RMK A01 T03190148  RH  035%=      5-min Rain = 0
KAM1 141812Z 25012KT 32/15 A2987 RMK A01 T03200146  RH  035%=      5-min Rain = 0
KAM1 141813Z 24014KT 32/14 A2987 RMK A01 T03200136  RH  033%=      5-min Rain = 0
KAM1 141814Z 25011KT 32/14 A2987 RMK A01 T03190138  RH  033%=      5-min Rain = 0
KAM1 141815Z 24014KT 32/14 A2987 RMK A01 T03190142  RH  034%=      5-min Rain = 0
KAM1 141816Z 25015KT 32/14 A2987 RMK A01 T03190135  RH  033%=      5-min Rain = 0
KAM1 141817Z 25013KT 32/14 A2987 RMK A01 T03180136  RH  033%=      5-min Rain = 0
KAM1 141818Z 25011KT 32/13 A2987 RMK A01 T03180134  RH  033%=      5-min Rain = 0
KAM1 141819Z 24009KT 32/15 A2987 RMK A01 T03180149  RH  036%=      5-min Rain = 0
KAM1 141820Z 25012KT 32/15 A2987 RMK A01 T03220148  RH  035%=      5-min Rain = 0
KAM1 141821Z 25011KT 32/14 A2987 RMK A01 T03230143  RH  033%=      5-min Rain = 0
KAM1 141822Z 26010KT 32/13 A2987 RMK A01 T03240134  RH  032%=      5-min Rain = 0
KAM1 141823Z 25009KT 32/15 A2987 RMK A01 T03240150  RH  035%=      5-min Rain = 0
KAM1 141824Z 23013KT 33/14 A2986 RMK A01 T03260144  RH  033%=      5-min Rain = 0
KAM1 141825Z 23010KT 33/14 A2986 RMK A01 T03270135  RH  031%=      5-min Rain = 0
KAM1 141826Z 23011KT 33/14 A2986 RMK A01 T03260141  RH  033%=      5-min Rain = 0
KAM1 141827Z 23010G15KT 33/15 A2986 RMK A01 T03270148  RH  034%=      5-min Rain = 0
KAM1 141828Z 25012KT 33/13 A2986 RMK A01 T03280133  RH  031%=      5-min Rain = 0
KAM1 141829Z 25013KT 33/14 A2986 RMK A01 T03280141  RH  032%=      5-min Rain = 0
KAM1 141830Z 24011KT 33/14 A2986 RMK A01 T03270141  RH  032%=      5-min Rain = 0
KAM1 141831Z 24011KT 33/15 A2986 RMK A01 T03280146  RH  034%=      5-min Rain = 0
KAM1 141832Z 24015G24KT 33/14 A2986 RMK A01 T03270138  RH  032%=      5-min Rain = 0
KAM1 141833Z 25015KT 33/14 A2986 RMK A01 T03270137  RH  032%=      5-min Rain = 0
KAM1 141834Z 25014KT 33/13 A2986 RMK A01 T03270132  RH  031%=      5-min Rain = 0
KAM1 141835Z 26009KT 33/12 A2986 RMK A01 T03260123  RH  029%=      5-min Rain = 0
KAM1 141836Z 24008KT 33/13 A2986 RMK A01 T03250131  RH  031%=      5-min Rain = 0
KAM1 141837Z 23011G16KT 33/14 A2986 RMK A01 T03260137  RH  032%=      5-min Rain = 0
KAM1 141838Z 24011KT 33/14 A2986 RMK A01 T03270142  RH  033%=      5-min Rain = 0
KAM1 141839Z 25011KT 33/14 A2986 RMK A01 T03280135  RH  031%=      5-min Rain = 0
KAM1 141840Z 24014KT 33/13 A2986 RMK A01 T03270133  RH  031%=      5-min Rain = 0
KAM1 141841Z 24014KT 33/13 A2986 RMK A01 T03280134  RH  031%=      5-min Rain = 0
KAM1 141842Z 24011KT 33/13 A2986 RMK A01 T03280129  RH  030%=      5-min Rain = 0
KAM1 141843Z 22011KT 33/13 A2986 RMK A01 T03280132  RH  030%=      5-min Rain = 0
KAM1 141844Z 23013G26KT 33/13 A2986 RMK A01 T03300132  RH  030%=      5-min Rain = 0
KAM1 141845Z 25016G23KT 33/13 A2986 RMK A01 T03300129  RH  029%=      5-min Rain = 0
KAM1 141846Z 26012KT 33/13 A2986 RMK A01 T03300126  RH  029%=      5-min Rain = 0
KAM1 141847Z 26011KT 33/12 A2986 RMK A01 T03290121  RH  028%=      5-min Rain = 0
KAM1 141848Z 25012KT 33/12 A2986 RMK A01 T03280124  RH  029%=      5-min Rain = 0
KAM1 141849Z 24011KT 33/13 A2986 RMK A01 T03270133  RH  031%=      5-min Rain = 0
KAM1 141850Z 24011KT 33/13 A2986 RMK A01 T03270133  RH  031%=      5-min Rain = 0
KAM1 141851Z 24014KT 33/13 A2986 RMK A01 T03250129  RH  030%=      5-min Rain = 0
KAM1 141852Z 22011KT 32/13 A2986 RMK A01 T03240134  RH  032%=      5-min Rain = 0
KAM1 141853Z 22009KT 33/13 A2986 RMK A01 T03250131  RH  031%=      5-min Rain = 0
KAM1 141854Z 22011KT 33/14 A2986 RMK A01 T03260136  RH  032%=      5-min Rain = 0
KAM1 141855Z 25015KT 33/13 A2986 RMK A01 T03290133  RH  031%=      5-min Rain = 0
KAM1 141856Z 26011KT 33/14 A2986 RMK A01 T03290136  RH  031%=      5-min Rain = 0
KAM1 141857Z 26014KT 33/13 A2986 RMK A01 T03300127  RH  029%=      5-min Rain = 0
KAM1 141858Z 27011KT 33/11 A2986 RMK A01 T03290114  RH  027%=      5-min Rain = 0
KAM1 141859Z 24011KT 33/12 A2986 RMK A01 T03270123  RH  029%=      5-min Rain = 0
KAM1 141900Z 25015G21KT 33/13 A2986 RMK A01 T03280127  RH  030%=      5-min Rain = 0
KAM1 141901Z 26015KT 33/13 A2986 RMK A01 T03300127  RH  029%=      5-min Rain = 0
KAM1 141902Z 26013KT 33/12 A2986 RMK A01 T03310122  RH  028%=      5-min Rain = 0
KAM1 141903Z 24014KT 33/13 A2986 RMK A01 T03300128  RH  029%=      5-min Rain = 0
KAM1 141904Z 23014KT 33/12 A2986 RMK A01 T03310120  RH  028%=      5-min Rain = 0
KAM1 141905Z 25010KT 33/13 A2986 RMK A01 T03310127  RH  029%=      5-min Rain = 0
KAM1 141906Z 25010KT 33/13 A2986 RMK A01 T03310127  RH  029%=      5-min Rain = 0
KAM1 141907Z 24013KT 33/13 A2986 RMK A01 T03330132  RH  030%=      5-min Rain = 0
KAM1 141908Z 22012KT 33/12 A2986 RMK A01 T03330124  RH  028%=      5-min Rain = 0
KAM1 141909Z 22015KT 33/13 A2986 RMK A01 T03320130  RH  029%=      5-min Rain = 0
KAM1 141910Z 21013KT 33/13 A2986 RMK A01 T03320130  RH  029%=      5-min Rain = 0
KAM1 141911Z 21011KT 33/13 A2986 RMK A01 T03320130  RH  029%=      5-min Rain = 0
KAM1 141912Z 22011KT 33/12 A2986 RMK A01 T03310124  RH  028%=      5-min Rain = 0
KAM1 141913Z 24011KT 33/13 A2986 RMK A01 T03300134  RH  030%=      5-min Rain = 0
KAM1 141914Z 23013KT 33/14 A2986 RMK A01 T03310135  RH  031%=      5-min Rain = 0
KAM1 141915Z 24014KT 33/13 A2986 RMK A01 T03310125  RH  029%=      5-min Rain = 0
KAM1 141916Z 24014KT 33/13 A2986 RMK A01 T03310129  RH  029%=      5-min Rain = 0
KAM1 141917Z 24011KT 33/12 A2986 RMK A01 T03310122  RH  028%=      5-min Rain = 0
KAM1 141918Z 23010KT 33/13 A2986 RMK A01 T03300131  RH  030%=      5-min Rain = 0
KAM1 141919Z 23013KT 33/13 A2986 RMK A01 T03310129  RH  029%=      5-min Rain = 0
KAM1 141920Z 25010KT 33/13 A2986 RMK A01 T03320131  RH  030%=      5-min Rain = 0
KAM1 141921Z 25012KT 33/13 A2986 RMK A01 T03340127  RH  029%=      5-min Rain = 0
KAM1 141922Z 25011KT 33/13 A2986 RMK A01 T03340131  RH  029%=      5-min Rain = 0
KAM1 141923Z 25011KT 33/13 A2986 RMK A01 T03330126  RH  028%=      5-min Rain = 0
KAM1 141924Z 26009KT 33/13 A2986 RMK A01 T03330131  RH  029%=      5-min Rain = 0
KAM1 141925Z 25012KT 33/13 A2986 RMK A01 T03330127  RH  029%=      5-min Rain = 0
KAM1 141926Z 24009KT 33/13 A2986 RMK A01 T03330125  RH  028%=      5-min Rain = 0
KAM1 141927Z 24011KT 33/12 A2986 RMK A01 T03330122  RH  028%=      5-min Rain = 0
KAM1 141928Z 24013KT 33/12 A2986 RMK A01 T03340116  RH  027%=      5-min Rain = 0
KAM1 141929Z 23010KT 33/11 A2985 RMK A01 T03330114  RH  026%=      5-min Rain = 0
KAM1 141930Z 24009KT 33/12 A2985 RMK A01 T03320119  RH  027%=      5-min Rain = 0
KAM1 141931Z 24011KT 33/13 A2985 RMK A01 T03330128  RH  029%=      5-min Rain = 0
KAM1 141932Z 24010KT 33/12 A2985 RMK A01 T03340122  RH  028%=      5-min Rain = 0
KAM1 141933Z 22012KT 33/13 A2985 RMK A01 T03340125  RH  028%=      5-min Rain = 0
KAM1 141934Z 23012KT 33/12 A2985 RMK A01 T03320119  RH  027%=      5-min Rain = 0
KAM1 141935Z 23011KT 33/12 A2985 RMK A01 T03300124  RH  029%=      5-min Rain = 0
KAM1 141936Z 23010KT 33/13 A2985 RMK A01 T03280125  RH  029%=      5-min Rain = 0
KAM1 141937Z 22010KT 33/13 A2985 RMK A01 T03260127  RH  030%=      5-min Rain = 0
KAM1 141938Z 22012KT 33/13 A2985 RMK A01 T03260130  RH  030%=      5-min Rain = 0
KAM1 141939Z 23008KT 33/14 A2985 RMK A01 T03270137  RH  032%=      5-min Rain = 0
KAM1 141940Z 23008KT 33/14 A2985 RMK A01 T03290138  RH  032%=      5-min Rain = 0
KAM1 141941Z 22009KT 33/14 A2985 RMK A01 T03320142  RH  032%=      5-min Rain = 0
KAM1 141942Z 23009KT 33/13 A2985 RMK A01 T03330128  RH  029%=      5-min Rain = 0
KAM1 141943Z 22009KT 33/13 A2985 RMK A01 T03320134  RH  030%=      5-min Rain = 0
KAM1 141944Z 22011KT 33/13 A2985 RMK A01 T03310127  RH  029%=      5-min Rain = 0
KAM1 141945Z 23011KT 33/13 A2985 RMK A01 T03300132  RH  030%=      5-min Rain = 0
KAM1 141946Z 23011KT 33/13 A2985 RMK A01 T03290126  RH  029%=      5-min Rain = 0
KAM1 141947Z 23010KT 33/13 A2985 RMK A01 T03270129  RH  030%=      5-min Rain = 0
KAM1 141948Z 25011KT 32/12 A2985 RMK A01 T03240121  RH  029%=      5-min Rain = 0
KAM1 141949Z 25011KT 32/12 A2985 RMK A01 T03220122  RH  029%=      5-min Rain = 0
KAM1 141950Z 24010KT 32/13 A2985 RMK A01 T03200127  RH  031%=      5-min Rain = 0
KAM1 141951Z 24009KT 32/12 A2985 RMK A01 T03180122  RH  030%=      5-min Rain = 0
KAM1 141952Z 24008KT 32/13 A2985 RMK A01 T03180134  RH  033%=      5-min Rain = 0
KAM1 141953Z 23008KT 32/14 A2985 RMK A01 T03170136  RH  033%=      5-min Rain = 0
KAM1 141954Z 24010KT 32/13 A2985 RMK A01 T03170128  RH  032%=      5-min Rain = 0
KAM1 141955Z 25010KT 32/12 A2985 RMK A01 T03160124  RH  031%=      5-min Rain = 0
KAM1 141956Z 24013KT 32/12 A2985 RMK A01 T03160122  RH  031%=      5-min Rain = 0
KAM1 141957Z 23012KT 32/13 A2985 RMK A01 T03150129  RH  032%=      5-min Rain = 0
KAM1 141958Z 22014KT 31/13 A2985 RMK A01 T03140128  RH  032%=      5-min Rain = 0
KAM1 141959Z 22012KT 31/13 A2985 RMK A01 T03140131  RH  033%=      5-min Rain = 0
KAM1 142000Z 22011KT 31/13 A2985 RMK A01 T03120125  RH  032%=      5-min Rain = 0
KAM1 142001Z 22010KT 31/13 A2985 RMK A01 T03120133  RH  034%=      5-min Rain = 0
KAM1 142002Z 23011KT 31/13 A2985 RMK A01 T03110132  RH  034%=      5-min Rain = 0
KAM1 142003Z 23011KT 31/13 A2985 RMK A01 T03100130  RH  033%=      5-min Rain = 0
KAM1 142004Z 23014KT 31/13 A2985 RMK A01 T03100128  RH  033%=      5-min Rain = 0
KAM1 142005Z 23011KT 31/13 A2985 RMK A01 T03100127  RH  033%=      5-min Rain = 0
KAM1 142006Z 23009KT 31/14 A2985 RMK A01 T03110136  RH  035%=      5-min Rain = 0
KAM1 142007Z 23012KT 31/13 A2985 RMK A01 T03100134  RH  034%=      5-min Rain = 0
KAM1 142008Z 23014KT 31/12 A2985 RMK A01 T03110123  RH  032%=      5-min Rain = 0
KAM1 142009Z 23016KT 31/12 A2985 RMK A01 T03120119  RH  031%=      5-min Rain = 0
KAM1 142010Z 24011KT 31/13 A2985 RMK A01 T03120126  RH  032%=      5-min Rain = 0
KAM1 142011Z 24012KT 31/13 A2985 RMK A01 T03120128  RH  032%=      5-min Rain = 0
KAM1 142012Z 24011KT 31/13 A2985 RMK A01 T03130126  RH  032%=      5-min Rain = 0
KAM1 142013Z 24012KT 31/13 A2985 RMK A01 T03140132  RH  033%=      5-min Rain = 0
KAM1 142014Z 25011KT 31/13 A2985 RMK A01 T03140128  RH  032%=      5-min Rain = 0
KAM1 142015Z 24012KT 31/13 A2985 RMK A01 T03140127  RH  032%=      5-min Rain = 0
KAM1 142016Z 24012KT 31/12 A2985 RMK A01 T03140119  RH  030%=      5-min Rain = 0
KAM1 142017Z 24011KT 32/12 A2985 RMK A01 T03150120  RH  030%=      5-min Rain = 0
KAM1 142018Z 24012KT 32/12 A2985 RMK A01 T03150121  RH  031%=      5-min Rain = 0
KAM1 142019Z 25012KT 32/11 A2985 RMK A01 T03160111  RH  028%=      5-min Rain = 0
KAM1 142020Z 25012KT 32/11 A2985 RMK A01 T03170106  RH  027%=      5-min Rain = 0
KAM1 142021Z 24012KT 32/11 A2985 RMK A01 T03170107  RH  027%=      5-min Rain = 0
KAM1 142022Z 24011KT 32/11 A2985 RMK A01 T03180108  RH  027%=      5-min Rain = 0
KAM1 142023Z 24010KT 32/12 A2984 RMK A01 T03190115  RH  029%=      5-min Rain = 0
KAM1 142024Z 24013KT 32/10 A2984 RMK A01 T03190102  RH  026%=      5-min Rain = 0
KAM1 142025Z 23013KT 32/10 A2984 RMK A01 T03180098  RH  026%=      5-min Rain = 0
KAM1 142026Z 23011KT 32/10 A2984 RMK A01 T03160097  RH  026%=      5-min Rain = 0
KAM1 142027Z 23011KT 31/10 A2984 RMK A01 T03140099  RH  027%=      5-min Rain = 0
KAM1 142028Z 23012KT 31/10 A2984 RMK A01 T03120096  RH  026%=      5-min Rain = 0
KAM1 142029Z 23013KT 31/10 A2984 RMK A01 T03110099  RH  027%=      5-min Rain = 0
KAM1 142030Z 23011KT 31/10 A2984 RMK A01 T03090097  RH  027%=      5-min Rain = 0
KAM1 142031Z 22012KT 31/10 A2984 RMK A01 T03070100  RH  028%=      5-min Rain = 0
KAM1 142032Z 22011KT 31/10 A2984 RMK A01 T03050103  RH  029%=      5-min Rain = 0
KAM1 142033Z 22011KT 30/11 A2984 RMK A01 T03040105  RH  029%=      5-min Rain = 0
KAM1 142034Z 23011KT 30/10 A2984 RMK A01 T03020101  RH  029%=      5-min Rain = 0
KAM1 142035Z 23009KT 30/10 A2984 RMK A01 T03020100  RH  029%=      5-min Rain = 0
KAM1 142036Z 22009KT 30/11 A2984 RMK A01 T03010106  RH  030%=      5-min Rain = 0
KAM1 142037Z 23008KT 30/11 A2984 RMK A01 T02990108  RH  031%=      5-min Rain = 0
KAM1 142038Z 23008KT 30/11 A2984 RMK A01 T02980110  RH  031%=      5-min Rain = 0
KAM1 142039Z 23006KT 30/11 A2984 RMK A01 T02980113  RH  032%=      5-min Rain = 0
KAM1 142040Z 23006KT 30/12 A2984 RMK A01 T02970119  RH  033%=      5-min Rain = 0
KAM1 142041Z 23007KT 30/12 A2984 RMK A01 T02960119  RH  034%=      5-min Rain = 0
KAM1 142042Z 23006KT 30/12 A2984 RMK A01 T02960122  RH  034%=      5-min Rain = 0
KAM1 142043Z 23007KT 30/13 A2984 RMK A01 T02960128  RH  036%=      5-min Rain = 0
KAM1 142044Z 22007KT 30/13 A2984 RMK A01 T02960130  RH  036%=      5-min Rain = 0
KAM1 142045Z 21007KT 30/13 A2984 RMK A01 T02960130  RH  036%=      5-min Rain = 0
KAM1 142046Z 21007KT 30/13 A2984 RMK A01 T02960128  RH  036%=      5-min Rain = 0
KAM1 142047Z 21006KT 30/13 A2984 RMK A01 T02980131  RH  036%=      5-min Rain = 0
KAM1 142048Z 22005KT 30/13 A2984 RMK A01 T03010134  RH  036%=      5-min Rain = 0
KAM1 142049Z 21006KT 30/13 A2984 RMK A01 T03040128  RH  034%=      5-min Rain = 0
KAM1 142050Z 22003KT 31/14 A2984 RMK A01 T03070137  RH  035%=      5-min Rain = 0
KAM1 142051Z 22005KT 31/13 A2984 RMK A01 T03110134  RH  034%=      5-min Rain = 0
KAM1 142052Z 21004KT 31/13 A2984 RMK A01 T03140132  RH  033%=      5-min Rain = 0
KAM1 142053Z 21005KT 32/14 A2984 RMK A01 T03190139  RH  034%=      5-min Rain = 0
KAM1 142054Z 21006KT 32/14 A2983 RMK A01 T03230135  RH  032%=      5-min Rain = 0
KAM1 142055Z 22005KT 33/12 A2983 RMK A01 T03270120  RH  028%=      5-min Rain = 0
KAM1 142056Z 20004KT 33/13 A2983 RMK A01 T03280133  RH  031%=      5-min Rain = 0
KAM1 142057Z 21005KT 33/12 A2983 RMK A01 T03300122  RH  028%=      5-min Rain = 0
KAM1 142058Z 20006KT 33/12 A2983 RMK A01 T03310120  RH  028%=      5-min Rain = 0
KAM1 142059Z 21008KT 33/12 A2983 RMK A01 T03310118  RH  027%=      5-min Rain = 0
KAM1 142100Z 22007KT 33/12 A2983 RMK A01 T03310116  RH  027%=      5-min Rain = 0
KAM1 142101Z 22007KT 33/13 A2983 RMK A01 T03310125  RH  029%=      5-min Rain = 0
KAM1 142102Z 20008KT 33/13 A2983 RMK A01 T03310129  RH  029%=      5-min Rain = 0
KAM1 142103Z 20008KT 33/12 A2983 RMK A01 T03320118  RH  027%=      5-min Rain = 0
KAM1 142104Z 20007KT 33/11 A2983 RMK A01 T03320114  RH  026%=      5-min Rain = 0
KAM1 142105Z 20007KT 33/12 A2983 RMK A01 T03320117  RH  027%=      5-min Rain = 0
KAM1 142106Z 21008KT 33/12 A2983 RMK A01 T03320119  RH  027%=      5-min Rain = 0
KAM1 142107Z 21008KT 33/12 A2983 RMK A01 T03320119  RH  027%=      5-min Rain = 0
KAM1 142108Z 20006KT 33/11 A2983 RMK A01 T03330113  RH  026%=      5-min Rain = 0
KAM1 142109Z 21009KT 33/11 A2982 RMK A01 T03330114  RH  026%=      5-min Rain = 0
KAM1 142110Z 20007KT 33/11 A2982 RMK A01 T03330106  RH  025%=      5-min Rain = 0
KAM1 142111Z 21007KT 33/10 A2982 RMK A01 T03330104  RH  025%=      5-min Rain = 0
KAM1 142112Z 20007KT 34/12 A2982 RMK A01 T03350116  RH  027%=      5-min Rain = 0
KAM1 142113Z 21007KT 34/10 A2982 RMK A01 T03360099  RH  023%=      5-min Rain = 0
KAM1 142114Z 20004KT 34/10 A2982 RMK A01 T03360098  RH  023%=      5-min Rain = 0
KAM1 142115Z 21005KT 34/11 A2982 RMK A01 T03360113  RH  026%=      5-min Rain = 0
KAM1 142116Z 20005KT 34/11 A2982 RMK A01 T03370106  RH  024%=      5-min Rain = 0
KAM1 142117Z 18005KT 34/11 A2982 RMK A01 T03380111  RH  025%=      5-min Rain = 0
KAM1 142118Z 19005KT 34/11 A2982 RMK A01 T03380109  RH  025%=      5-min Rain = 0
KAM1 142119Z 18003KT 34/11 A2982 RMK A01 T03390105  RH  024%=      5-min Rain = 0
KAM1 142120Z 20005KT 34/12 A2982 RMK A01 T03400119  RH  026%=      5-min Rain = 0
KAM1 142121Z 21006KT 34/12 A2982 RMK A01 T03410116  RH  025%=      5-min Rain = 0
KAM1 142122Z 21004KT 34/10 A2981 RMK A01 T03430097  RH  022%=      5-min Rain = 0
KAM1 142123Z 20005KT 34/10 A2981 RMK A01 T03430100  RH  023%=      5-min Rain = 0
KAM1 142124Z 19006KT 34/09 A2981 RMK A01 T03430093  RH  022%=      5-min Rain = 0
KAM1 142125Z 20005KT 34/10 A2981 RMK A01 T03420101  RH  023%=      5-min Rain = 0
KAM1 142126Z 18007KT 34/11 A2981 RMK A01 T03410105  RH  024%=      5-min Rain = 0
KAM1 142127Z 21006KT 34/10 A2981 RMK A01 T03400104  RH  024%=      5-min Rain = 0
KAM1 142128Z 22004KT 34/11 A2981 RMK A01 T03400112  RH  025%=      5-min Rain = 0
KAM1 142129Z 22005KT 34/11 A2981 RMK A01 T03410109  RH  024%=      5-min Rain = 0
KAM1 142130Z 19005KT 34/12 A2981 RMK A01 T03410116  RH  026%=      5-min Rain = 0
KAM1 142131Z 17006KT 34/12 A2981 RMK A01 T03420116  RH  025%=      5-min Rain = 0
KAM1 142132Z 19005KT 34/09 A2981 RMK A01 T03420093  RH  022%=      5-min Rain = 0
KAM1 142133Z 19007KT 34/10 A2981 RMK A01 T03430103  RH  023%=      5-min Rain = 0
KAM1 142134Z 18005KT 34/10 A2981 RMK A01 T03420100  RH  023%=      5-min Rain = 0
KAM1 142135Z 18005KT 34/10 A2981 RMK A01 T03410101  RH  023%=      5-min Rain = 0
KAM1 142136Z 17005KT 34/11 A2981 RMK A01 T03410105  RH  024%=      5-min Rain = 0
KAM1 142137Z 15004KT 34/10 A298 RMK A01 T03410100  RH  023%=      5-min Rain = 0
KAM1 142138Z 19006KT 34/10 A298 RMK A01 T03420097  RH  022%=      5-min Rain = 0
KAM1 142139Z 19005KT 34/10 A2981 RMK A01 T03400096  RH  022%=      5-min Rain = 0
KAM1 142140Z 19006KT 34/11 A2981 RMK A01 T03380105  RH  024%=      5-min Rain = 0
KAM1 142141Z 18005KT 34/11 A2981 RMK A01 T03360112  RH  025%=      5-min Rain = 0
KAM1 142142Z 18004KT 34/11 A2981 RMK A01 T03360114  RH  026%=      5-min Rain = 0
KAM1 142143Z 18006KT 34/12 A298 RMK A01 T03370122  RH  027%=      5-min Rain = 0
KAM1 142144Z 19005KT 34/12 A298 RMK A01 T03400118  RH  026%=      5-min Rain = 0
KAM1 142145Z 18007KT 34/11 A298 RMK A01 T03420109  RH  024%=      5-min Rain = 0
KAM1 142146Z 19005KT 34/10 A298 RMK A01 T03440102  RH  023%=      5-min Rain = 0
KAM1 142147Z 18007KT 34/11 A298 RMK A01 T03440108  RH  024%=      5-min Rain = 0
KAM1 142148Z 18007KT 35/10 A298 RMK A01 T03450100  RH  023%=      5-min Rain = 0
KAM1 142149Z 20008KT 34/11 A298 RMK A01 T03440107  RH  024%=      5-min Rain = 0
KAM1 142150Z 21008KT 34/11 A298 RMK A01 T03400105  RH  024%=      5-min Rain = 0
KAM1 142151Z 20006KT 34/10 A298 RMK A01 T03370098  RH  023%=      5-min Rain = 0
KAM1 142152Z 20008KT 33/11 A298 RMK A01 T03340109  RH  025%=      5-min Rain = 0
KAM1 142153Z 19008KT 33/11 A298 RMK A01 T03320105  RH  025%=      5-min Rain = 0
KAM1 142154Z 20008KT 33/11 A298 RMK A01 T03300107  RH  026%=      5-min Rain = 0
KAM1 142155Z 19006KT 33/12 A298 RMK A01 T03270120  RH  028%=      5-min Rain = 0
KAM1 142156Z 18006KT 32/14 A298 RMK A01 T03220135  RH  032%=      5-min Rain = 0
KAM1 142157Z 19007KT 32/13 A298 RMK A01 T03180132  RH  032%=      5-min Rain = 0
KAM1 142158Z 20008KT 32/13 A298 RMK A01 T03160129  RH  032%=      5-min Rain = 0
KAM1 142159Z 19008KT 32/13 A298 RMK A01 T03160125  RH  031%=      5-min Rain = 0
KAM1 142200Z 19008KT 32/13 A298 RMK A01 T03170132  RH  032%=      5-min Rain = 0
KAM1 142201Z 19007KT 32/14 A298 RMK A01 T03190137  RH  033%=      5-min Rain = 0
KAM1 142202Z 19007KT 32/13 A2979 RMK A01 T03220131  RH  031%=      5-min Rain = 0
KAM1 142203Z 19008KT 33/13 A2979 RMK A01 T03270132  RH  031%=      5-min Rain = 0
KAM1 142204Z 20007G12KT 33/14 A2979 RMK A01 T03310144  RH  032%=      5-min Rain = 0
KAM1 142205Z 23010KT 34/11 A2979 RMK A01 T03350106  RH  025%=      5-min Rain = 0
KAM1 142206Z 19010KT 34/12 A2979 RMK A01 T03390121  RH  027%=      5-min Rain = 0
KAM1 142207Z 18009KT 34/13 A2979 RMK A01 T03420127  RH  027%=      5-min Rain = 0
KAM1 142208Z 19009KT 34/11 A2979 RMK A01 T03440112  RH  024%=      5-min Rain = 0
KAM1 142209Z 20010KT 35/12 A2979 RMK A01 T03460118  RH  025%=      5-min Rain = 0
KAM1 142210Z 21006G11KT 35/09 A2979 RMK A01 T03470087  RH  020%=      5-min Rain = 0
KAM1 142211Z 19008KT 35/10 A2979 RMK A01 T03480101  RH  022%=      5-min Rain = 0
KAM1 142212Z 19009KT 35/10 A2979 RMK A01 T03490101  RH  022%=      5-min Rain = 0
KAM1 142213Z 19008KT 35/10 A2979 RMK A01 T03490097  RH  021%=      5-min Rain = 0
KAM1 142214Z 17007KT 35/11 A2979 RMK A01 T03500105  RH  023%=      5-min Rain = 0
KAM1 142215Z 18007KT 35/11 A2979 RMK A01 T03500112  RH  024%=      5-min Rain = 0
KAM1 142216Z 19009KT 35/12 A2979 RMK A01 T03500115  RH  024%=      5-min Rain = 0
KAM1 142217Z 20006KT 35/12 A2979 RMK A01 T03500118  RH  025%=      5-min Rain = 0
KAM1 142218Z 18006KT 35/12 A2979 RMK A01 T03500118  RH  025%=      5-min Rain = 0
KAM1 142219Z 19007KT 35/12 A2979 RMK A01 T03500118  RH  025%=      5-min Rain = 0
KAM1 142220Z 18007KT 35/12 A2979 RMK A01 T03500124  RH  026%=      5-min Rain = 0
KAM1 142221Z 19007KT 35/11 A2979 RMK A01 T03500113  RH  024%=      5-min Rain = 0
KAM1 142222Z 19006KT 35/12 A2979 RMK A01 T03500122  RH  025%=      5-min Rain = 0
KAM1 142223Z 20006KT 35/12 A2979 RMK A01 T03500117  RH  024%=      5-min Rain = 0
KAM1 142224Z 18006KT 35/12 A2979 RMK A01 T03510121  RH  025%=      5-min Rain = 0
KAM1 142225Z 20006KT 35/12 A2979 RMK A01 T03520122  RH  025%=      5-min Rain = 0
KAM1 142226Z 21007KT 35/11 A2979 RMK A01 T03520108  RH  023%=      5-min Rain = 0
KAM1 142227Z 21009KT 35/11 A2979 RMK A01 T03520110  RH  023%=      5-min Rain = 0
KAM1 142228Z 23010KT 35/11 A2979 RMK A01 T03520110  RH  023%=      5-min Rain = 0
KAM1 142229Z 24009KT 35/10 A2979 RMK A01 T03520100  RH  022%=      5-min Rain = 0
KAM1 142230Z 23011G16KT 35/10 A2979 RMK A01 T03530097  RH  021%=      5-min Rain = 0
KAM1 142231Z 23013KT 35/08 A2979 RMK A01 T03500075  RH  018%=      5-min Rain = 0
KAM1 142232Z 24011KT 35/08 A2979 RMK A01 T03470076  RH  019%=      5-min Rain = 0
KAM1 142233Z 24008KT 35/09 A2979 RMK A01 T03450088  RH  021%=      5-min Rain = 0
KAM1 142234Z 24009KT 34/09 A2979 RMK A01 T03440093  RH  021%=      5-min Rain = 0
KAM1 142235Z 24011KT 35/09 A2979 RMK A01 T03460086  RH  020%=      5-min Rain = 0
KAM1 142236Z 24009KT 35/09 A2979 RMK A01 T03480089  RH  020%=      5-min Rain = 0
KAM1 142237Z 22011KT 35/08 A2979 RMK A01 T03500080  RH  019%=      5-min Rain = 0
KAM1 142238Z 22012KT 35/08 A2979 RMK A01 T03510076  RH  019%=      5-min Rain = 0
KAM1 142239Z 23011KT 35/06 A2979 RMK A01 T03480064  RH  017%=      5-min Rain = 0
KAM1 142240Z 23010KT 35/07 A2979 RMK A01 T03460069  RH  018%=      5-min Rain = 0
KAM1 142241Z 23010KT 34/08 A2979 RMK A01 T03430081  RH  020%=      5-min Rain = 0
KAM1 142242Z 22008KT 34/08 A2979 RMK A01 T03400077  RH  020%=      5-min Rain = 0
KAM1 142243Z 23008KT 34/09 A2979 RMK A01 T03370090  RH  022%=      5-min Rain = 0
KAM1 142244Z 22007KT 34/08 A2978 RMK A01 T03360082  RH  021%=      5-min Rain = 0
KAM1 142245Z 22008KT 34/08 A2978 RMK A01 T03350082  RH  021%=      5-min Rain = 0
KAM1 142246Z 22007KT 33/09 A2978 RMK A01 T03320090  RH  023%=      5-min Rain = 0
KAM1 142247Z 23006KT 33/10 A2978 RMK A01 T03290096  RH  024%=      5-min Rain = 0
KAM1 142248Z 23008KT 33/11 A2978 RMK A01 T03270106  RH  026%=      5-min Rain = 0
KAM1 142249Z 24008KT 33/09 A2978 RMK A01 T03270088  RH  023%=      5-min Rain = 0
KAM1 142250Z 23007KT 33/08 A2978 RMK A01 T03330082  RH  021%=      5-min Rain = 0
KAM1 142251Z 24006KT 34/10 A2978 RMK A01 T03390096  RH  023%=      5-min Rain = 0
KAM1 142252Z 25010G15KT 34/09 A2978 RMK A01 T03430091  RH  021%=      5-min Rain = 0
KAM1 142253Z 25013KT 35/07 A2978 RMK A01 T03460073  RH  019%=      5-min Rain = 0
KAM1 142254Z 23010G15KT 35/08 A2978 RMK A01 T03480080  RH  019%=      5-min Rain = 0
KAM1 142255Z 21006KT 35/10 A2978 RMK A01 T03470098  RH  022%=      5-min Rain = 0
KAM1 142256Z 21006KT 34/09 A2978 RMK A01 T03440092  RH  021%=      5-min Rain = 0
KAM1 142257Z 22006KT 34/09 A2978 RMK A01 T03440086  RH  020%=      5-min Rain = 0
KAM1 142258Z 25006KT 35/11 A2978 RMK A01 T03460106  RH  023%=      5-min Rain = 0
KAM1 142259Z 24014G21KT 35/10 A2978 RMK A01 T03470097  RH  022%=      5-min Rain = 0
KAM1 142300Z 29012G18KT 35/08 A2978 RMK A01 T03490080  RH  019%=      5-min Rain = 0
KAM1 142301Z 28008KT 35/08 A2978 RMK A01 T03500084  RH  020%=      5-min Rain = 0
KAM1 142302Z 27007KT 35/09 A2978 RMK A01 T03510087  RH  020%=      5-min Rain = 0
KAM1 142303Z 26007KT 35/10 A2978 RMK A01 T03510096  RH  021%=      5-min Rain = 0
KAM1 142304Z 28007KT 35/10 A2978 RMK A01 T03510097  RH  021%=      5-min Rain = 0
KAM1 142305Z 28008KT 35/09 A2978 RMK A01 T03520088  RH  020%=      5-min Rain = 0
KAM1 142306Z 27006KT 35/09 A2978 RMK A01 T03530091  RH  020%=      5-min Rain = 0
KAM1 142307Z 27007KT 35/12 A2978 RMK A01 T03530119  RH  024%=      5-min Rain = 0
KAM1 142308Z 27008KT 35/10 A2978 RMK A01 T03520103  RH  022%=      5-min Rain = 0
KAM1 142309Z 27007KT 35/10 A2977 RMK A01 T03520103  RH  022%=      5-min Rain = 0
KAM1 142310Z 26009KT 35/09 A2977 RMK A01 T03520093  RH  021%=      5-min Rain = 0
KAM1 142311Z 26010KT 35/10 A2977 RMK A01 T03520098  RH  021%=      5-min Rain = 0
KAM1 142312Z 26010KT 35/09 A2977 RMK A01 T03520087  RH  020%=      5-min Rain = 0
KAM1 142313Z 25008KT 35/08 A2977 RMK A01 T03510083  RH  019%=      5-min Rain = 0
KAM1 142314Z 25010KT 35/11 A2977 RMK A01 T03510106  RH  023%=      5-min Rain = 0
KAM1 142315Z 25013KT 35/07 A2977 RMK A01 T03510074  RH  018%=      5-min Rain = 0
KAM1 142316Z 25011KT 35/07 A2977 RMK A01 T03510068  RH  017%=      5-min Rain = 0
KAM1 142317Z 25010KT 35/08 A2977 RMK A01 T03510077  RH  019%=      5-min Rain = 0
KAM1 142318Z 25011KT 35/07 A2977 RMK A01 T03500073  RH  018%=      5-min Rain = 0
KAM1 142319Z 25010KT 35/07 A2977 RMK A01 T03510071  RH  018%=      5-min Rain = 0
KAM1 142320Z 25011KT 35/08 A2977 RMK A01 T03500076  RH  019%=      5-min Rain = 0
KAM1 142321Z 25012KT 35/07 A2977 RMK A01 T03510066  RH  017%=      5-min Rain = 0
KAM1 142322Z 25012KT 35/06 A2976 RMK A01 T03510057  RH  016%=      5-min Rain = 0
KAM1 142323Z 24010KT 35/07 A2976 RMK A01 T03520065  RH  017%=      5-min Rain = 0
KAM1 142324Z 23009KT 35/08 A2976 RMK A01 T03520084  RH  019%=      5-min Rain = 0
KAM1 142325Z 24011KT 35/08 A2976 RMK A01 T03530083  RH  019%=      5-min Rain = 0
KAM1 142326Z 25011KT 35/07 A2976 RMK A01 T03530071  RH  018%=      5-min Rain = 0
KAM1 142327Z 24012KT 35/07 A2976 RMK A01 T03530073  RH  018%=      5-min Rain = 0
KAM1 142328Z 22009KT 35/09 A2976 RMK A01 T03530091  RH  020%=      5-min Rain = 0
KAM1 142329Z 22011KT 35/09 A2976 RMK A01 T03530085  RH  019%=      5-min Rain = 0
KAM1 142330Z 21016G21KT 35/06 A2976 RMK A01 T03530062  RH  017%=      5-min Rain = 0
KAM1 142331Z 20014KT 35/06 A2976 RMK A01 T03530061  RH  016%=      5-min Rain = 0
KAM1 142332Z 18013KT 35/08 A2976 RMK A01 T03530083  RH  019%=      5-min Rain = 0
KAM1 142333Z 18013KT 35/09 A2976 RMK A01 T03530088  RH  020%=      5-min Rain = 0
KAM1 142334Z 18014G19KT 35/11 A2977 RMK A01 T03510105  RH  022%=      5-min Rain = 0
KAM1 142335Z 18016G22KT 35/11 A2977 RMK A01 T03470114  RH  024%=      5-min Rain = 0
KAM1 142336Z 19018KT 34/11 A2977 RMK A01 T03420111  RH  024%=      5-min Rain = 0
KAM1 142337Z 19015G21KT 34/12 A2977 RMK A01 T03390119  RH  026%=      5-min Rain = 0
KAM1 142338Z 20015KT 34/12 A2977 RMK A01 T03370116  RH  026%=      5-min Rain = 0
KAM1 142339Z 21014KT 33/11 A2977 RMK A01 T03340114  RH  026%=      5-min Rain = 0
KAM1 142340Z 20014KT 33/11 A2977 RMK A01 T03310109  RH  026%=      5-min Rain = 0
KAM1 142341Z 20014KT 33/11 A2977 RMK A01 T03290114  RH  027%=      5-min Rain = 0
KAM1 142342Z 19017KT 33/12 A2977 RMK A01 T03290116  RH  027%=      5-min Rain = 0
KAM1 142343Z 20015KT 33/11 A2977 RMK A01 T03290113  RH  027%=      5-min Rain = 0
KAM1 142344Z 19015KT 33/11 A2977 RMK A01 T03270112  RH  027%=      5-min Rain = 0
KAM1 142345Z 19017KT 32/11 A2977 RMK A01 T03240109  RH  027%=      5-min Rain = 0
KAM1 142346Z 19014KT 32/11 A2977 RMK A01 T03220112  RH  028%=      5-min Rain = 0
KAM1 142347Z 19015KT 32/11 A2977 RMK A01 T03220112  RH  028%=      5-min Rain = 0
KAM1 142348Z 19017KT 32/11 A2976 RMK A01 T03230112  RH  027%=      5-min Rain = 0
KAM1 142349Z 19012KT 32/12 A2976 RMK A01 T03240115  RH  028%=      5-min Rain = 0
KAM1 142350Z 19013KT 32/12 A2976 RMK A01 T03240121  RH  029%=      5-min Rain = 0
KAM1 142351Z 19011KT 32/12 A2976 RMK A01 T03230120  RH  029%=      5-min Rain = 0
KAM1 142352Z 18011KT 32/12 A2976 RMK A01 T03220124  RH  030%=      5-min Rain = 0
KAM1 142353Z 19014KT 32/12 A2976 RMK A01 T03210118  RH  029%=      5-min Rain = 0
KAM1 142354Z 19013KT 32/12 A2976 RMK A01 T03200115  RH  028%=      5-min Rain = 0
KAM1 142355Z 19012KT 32/12 A2976 RMK A01 T03180118  RH  029%=      5-min Rain = 0
KAM1 142356Z 19012KT 32/12 A2976 RMK A01 T03150117  RH  030%=      5-min Rain = 0
KAM1 142357Z 19011KT 31/11 A2976 RMK A01 T03130114  RH  029%=      5-min Rain = 0
KAM1 142358Z 19014KT 31/12 A2976 RMK A01 T03120115  RH  030%=      5-min Rain = 0
KAM1 142359Z 19012KT 31/11 A2976 RMK A01 T03110111  RH  029%=      5-min Rain = 0
KAM1 150000Z 19010G15KT 31/12 A2976 RMK A01 T03100116  RH  031%=      5-min Rain = 0
KAM1 150001Z 18010KT 31/12 A2976 RMK A01 T03070115  RH  031%=      5-min Rain = 0
KAM1 150002Z 19013KT 31/11 A2976 RMK A01 T03060111  RH  030%=      5-min Rain = 0
KAM1 150003Z 18012KT 31/11 A2976 RMK A01 T03060109  RH  030%=      5-min Rain = 0
KAM1 150004Z 18009KT 31/11 A2976 RMK A01 T03060113  RH  030%=      5-min Rain = 0
KAM1 150005Z 19012G19KT 31/12 A2976 RMK A01 T03050118  RH  032%=      5-min Rain = 0
KAM1 150006Z 19016KT 31/11 A2976 RMK A01 T03050108  RH  030%=      5-min Rain = 0
KAM1 150007Z 19013G18KT 31/11 A2976 RMK A01 T03060110  RH  030%=      5-min Rain = 0
KAM1 150008Z 19014KT 31/11 A2976 RMK A01 T03060109  RH  030%=      5-min Rain = 0
KAM1 150009Z 20012KT 31/11 A2976 RMK A01 T03060109  RH  030%=      5-min Rain = 0
KAM1 150010Z 20011KT 31/11 A2976 RMK A01 T03060112  RH  030%=      5-min Rain = 0
KAM1 150011Z 20011KT 31/11 A2976 RMK A01 T03050111  RH  030%=      5-min Rain = 0
KAM1 150012Z 20011KT 30/11 A2976 RMK A01 T03040111  RH  030%=      5-min Rain = 0
KAM1 150013Z 19010KT 30/11 A2976 RMK A01 T03030112  RH  031%=      5-min Rain = 0
KAM1 150014Z 19011KT 30/11 A2976 RMK A01 T03030112  RH  031%=      5-min Rain = 0
KAM1 150015Z 19011KT 30/11 A2976 RMK A01 T03020111  RH  031%=      5-min Rain = 0
KAM1 150016Z 19011KT 30/11 A2976 RMK A01 T03030110  RH  030%=      5-min Rain = 0
KAM1 150017Z 19012KT 30/11 A2976 RMK A01 T03030109  RH  030%=      5-min Rain = 0
KAM1 150018Z 20011KT 30/11 A2976 RMK A01 T03030109  RH  030%=      5-min Rain = 0
KAM1 150019Z 19011KT 30/11 A2976 RMK A01 T03030111  RH  031%=      5-min Rain = 0
KAM1 150020Z 20011KT 30/11 A2976 RMK A01 T03030113  RH  031%=      5-min Rain = 0
KAM1 150021Z 19010KT 30/11 A2976 RMK A01 T03030113  RH  031%=      5-min Rain = 0
KAM1 150022Z 19011KT 30/11 A2976 RMK A01 T03030114  RH  031%=      5-min Rain = 0
KAM1 150023Z 19011KT 30/11 A2976 RMK A01 T03020112  RH  031%=      5-min Rain = 0
KAM1 150024Z 19010KT 30/11 A2976 RMK A01 T03030112  RH  031%=      5-min Rain = 0
KAM1 150025Z 19010KT 30/12 A2976 RMK A01 T03040116  RH  032%=      5-min Rain = 0
KAM1 150026Z 19011KT 30/12 A2976 RMK A01 T03030118  RH  032%=      5-min Rain = 0
KAM1 150027Z 19012KT 30/12 A2976 RMK A01 T03020116  RH  032%=      5-min Rain = 0
KAM1 150028Z 19011KT 30/11 A2976 RMK A01 T03010114  RH  032%=      5-min Rain = 0
KAM1 150029Z 19011KT 30/12 A2976 RMK A01 T03020118  RH  032%=      5-min Rain = 0
KAM1 150030Z 20014KT 30/11 A2976 RMK A01 T03010111  RH  031%=      5-min Rain = 0
KAM1 150031Z 19011KT 30/11 A2976 RMK A01 T03030110  RH  030%=      5-min Rain = 0
KAM1 150032Z 19013KT 30/11 A2976 RMK A01 T03040110  RH  030%=      5-min Rain = 0
KAM1 150033Z 19012KT 31/11 A2976 RMK A01 T03050108  RH  030%=      5-min Rain = 0
KAM1 150034Z 19013KT 31/11 A2976 RMK A01 T03060108  RH  029%=      5-min Rain = 0
KAM1 150035Z 20016G21KT 31/11 A2976 RMK A01 T03060105  RH  029%=      5-min Rain = 0
KAM1 150036Z 19015KT 31/10 A2976 RMK A01 T03070101  RH  028%=      5-min Rain = 0
KAM1 150037Z 19011KT 31/11 A2976 RMK A01 T03080105  RH  029%=      5-min Rain = 0
KAM1 150038Z 19012KT 31/11 A2976 RMK A01 T03070109  RH  029%=      5-min Rain = 0
KAM1 150039Z 19013KT 31/11 A2976 RMK A01 T03050106  RH  029%=      5-min Rain = 0
KAM1 150040Z 19011KT 30/11 A2976 RMK A01 T03040105  RH  029%=      5-min Rain = 0
KAM1 150041Z 18012KT 30/10 A2976 RMK A01 T03040104  RH  029%=      5-min Rain = 0
KAM1 150042Z 19012G18KT 31/10 A2976 RMK A01 T03050102  RH  029%=      5-min Rain = 0
KAM1 150043Z 18010KT 31/11 A2976 RMK A01 T03060107  RH  029%=      5-min Rain = 0
KAM1 150044Z 18012KT 31/11 A2976 RMK A01 T03050105  RH  029%=      5-min Rain = 0
KAM1 150045Z 18010KT 30/11 A2976 RMK A01 T03040107  RH  030%=      5-min Rain = 0
KAM1 150046Z 18013KT 30/11 A2976 RMK A01 T03030105  RH  029%=      5-min Rain = 0
KAM1 150047Z 18010KT 30/11 A2976 RMK A01 T03030106  RH  030%=      5-min Rain = 0
KAM1 150048Z 18010KT 30/11 A2976 RMK A01 T03020109  RH  030%=      5-min Rain = 0
KAM1 150049Z 18011KT 30/11 A2976 RMK A01 T03010108  RH  030%=      5-min Rain = 0
KAM1 150050Z 19012KT 30/11 A2976 RMK A01 T02990107  RH  030%=      5-min Rain = 0
KAM1 150051Z 18011KT 30/11 A2976 RMK A01 T02990107  RH  031%=      5-min Rain = 0
KAM1 150052Z 18011KT 30/11 A2976 RMK A01 T02990106  RH  030%=      5-min Rain = 0
KAM1 150053Z 18009KT 30/11 A2976 RMK A01 T02990107  RH  031%=      5-min Rain = 0
KAM1 150054Z 19011KT 30/11 A2976 RMK A01 T02990110  RH  031%=      5-min Rain = 0
KAM1 150055Z 19012KT 30/11 A2976 RMK A01 T02980108  RH  031%=      5-min Rain = 0
KAM1 150056Z 19013KT 30/11 A2976 RMK A01 T02980106  RH  031%=      5-min Rain = 0
KAM1 150057Z 18011KT 30/11 A2976 RMK A01 T02980106  RH  030%=      5-min Rain = 0
KAM1 150058Z 19010KT 30/11 A2976 RMK A01 T02980109  RH  031%=      5-min Rain = 0
KAM1 150059Z 19011KT 30/11 A2976 RMK A01 T02980109  RH  031%=      5-min Rain = 0
KAM1 150100Z 19011KT 30/11 A2976 RMK A01 T02970109  RH  031%=      5-min Rain = 0
KAM1 150101Z 18009KT 30/11 A2976 RMK A01 T02970112  RH  032%=      5-min Rain = 0
KAM1 150102Z 18010KT 30/11 A2976 RMK A01 T02970113  RH  032%=      5-min Rain = 0
KAM1 150103Z 18011KT 30/11 A2976 RMK A01 T02960108  RH  031%=      5-min Rain = 0
KAM1 150104Z 18010KT 30/11 A2976 RMK A01 T02970109  RH  031%=      5-min Rain = 0
KAM1 150105Z 18010KT 30/11 A2976 RMK A01 T02980110  RH  031%=      5-min Rain = 0
KAM1 150106Z 18011KT 30/11 A2976 RMK A01 T02990110  RH  031%=      5-min Rain = 0
KAM1 150107Z 18012KT 30/11 A2976 RMK A01 T02990105  RH  030%=      5-min Rain = 0
KAM1 150108Z 18011KT 30/11 A2976 RMK A01 T02990109  RH  031%=      5-min Rain = 0
KAM1 150109Z 18010KT 30/11 A2976 RMK A01 T02980111  RH  031%=      5-min Rain = 0
KAM1 150110Z 18012KT 30/11 A2976 RMK A01 T02970106  RH  031%=      5-min Rain = 0
KAM1 150111Z 18011G17KT 30/11 A2976 RMK A01 T02980108  RH  031%=      5-min Rain = 0
KAM1 150112Z 18011KT 30/11 A2976 RMK A01 T02990108  RH  031%=      5-min Rain = 0
KAM1 150113Z 18011KT 30/10 A2976 RMK A01 T02990103  RH  030%=      5-min Rain = 0
KAM1 150114Z 18010KT 30/11 A2976 RMK A01 T03000106  RH  030%=      5-min Rain = 0
KAM1 150115Z 18012KT 30/11 A2976 RMK A01 T03000108  RH  031%=      5-min Rain = 0
KAM1 150116Z 18011KT 30/11 A2976 RMK A01 T02990105  RH  030%=      5-min Rain = 0
KAM1 150117Z 19011G16KT 30/11 A2977 RMK A01 T02990106  RH  030%=      5-min Rain = 0
KAM1 150118Z 19010KT 30/11 A2977 RMK A01 T02990105  RH  030%=      5-min Rain = 0
KAM1 150119Z 18010KT 30/11 A2977 RMK A01 T02980108  RH  031%=      5-min Rain = 0
KAM1 150120Z 18011KT 30/11 A2977 RMK A01 T02970107  RH  031%=      5-min Rain = 0
KAM1 150121Z 18012KT 30/10 A2977 RMK A01 T02970104  RH  030%=      5-min Rain = 0
KAM1 150122Z 19011G16KT 30/10 A2977 RMK A01 T02970102  RH  030%=      5-min Rain = 0
KAM1 150123Z 18014KT 30/10 A2977 RMK A01 T02970099  RH  029%=      5-min Rain = 0
KAM1 150124Z 18016KT 30/10 A2977 RMK A01 T02980098  RH  029%=      5-min Rain = 0
KAM1 150125Z 18015KT 30/09 A2977 RMK A01 T02990094  RH  028%=      5-min Rain = 0
KAM1 150126Z 19015KT 30/09 A2976 RMK A01 T03000094  RH  028%=      5-min Rain = 0
KAM1 150127Z 19013G18KT 30/10 A2976 RMK A01 T03010095  RH  028%=      5-min Rain = 0
KAM1 150128Z 19014KT 30/10 A2976 RMK A01 T03000095  RH  028%=      5-min Rain = 0
KAM1 150129Z 19014KT 30/10 A2976 RMK A01 T02990095  RH  028%=      5-min Rain = 0
KAM1 150130Z 19015KT 30/09 A2976 RMK A01 T02980094  RH  028%=      5-min Rain = 0
KAM1 150131Z 18014KT 30/09 A2976 RMK A01 T02980092  RH  028%=      5-min Rain = 0
KAM1 150132Z 18012KT 30/09 A2976 RMK A01 T02990094  RH  028%=      5-min Rain = 0
KAM1 150133Z 18011KT 30/10 A2976 RMK A01 T02990096  RH  028%=      5-min Rain = 0
KAM1 150134Z 19011KT 30/10 A2976 RMK A01 T02970097  RH  029%=      5-min Rain = 0
KAM1 150135Z 19014KT 30/10 A2976 RMK A01 T02960096  RH  029%=      5-min Rain = 0
KAM1 150136Z 19014KT 30/09 A2976 RMK A01 T02950094  RH  029%=      5-min Rain = 0
KAM1 150137Z 18012KT 30/09 A2976 RMK A01 T02960094  RH  028%=      5-min Rain = 0
KAM1 150138Z 18011KT 30/10 A2976 RMK A01 T02960097  RH  029%=      5-min Rain = 0
KAM1 150139Z 18011KT 30/10 A2976 RMK A01 T02950099  RH  030%=      5-min Rain = 0
KAM1 150140Z 17011KT 29/10 A2976 RMK A01 T02930099  RH  030%=      5-min Rain = 0
KAM1 150141Z 17010KT 29/10 A2976 RMK A01 T02920101  RH  030%=      5-min Rain = 0
KAM1 150142Z 17010KT 29/10 A2976 RMK A01 T02900104  RH  031%=      5-min Rain = 0
KAM1 150143Z 17010KT 29/11 A2976 RMK A01 T02880105  RH  032%=      5-min Rain = 0
KAM1 150144Z 18010KT 29/10 A2976 RMK A01 T02860104  RH  032%=      5-min Rain = 0
KAM1 150145Z 17010KT 28/11 A2976 RMK A01 T02840105  RH  033%=      5-min Rain = 0
KAM1 150146Z 17011KT 28/10 A2976 RMK A01 T02830104  RH  033%=      5-min Rain = 0
KAM1 150147Z 17011KT 28/10 A2976 RMK A01 T02830102  RH  032%=      5-min Rain = 0
KAM1 150148Z 18011KT 28/10 A2976 RMK A01 T02820103  RH  033%=      5-min Rain = 0
KAM1 150149Z 17011KT 28/10 A2976 RMK A01 T02820100  RH  032%=      5-min Rain = 0
KAM1 150150Z 17011KT 28/10 A2976 RMK A01 T02820101  RH  032%=      5-min Rain = 0
KAM1 150151Z 17010KT 28/10 A2976 RMK A01 T02820099  RH  032%=      5-min Rain = 0
KAM1 150152Z 17010KT 28/10 A2976 RMK A01 T02820101  RH  032%=      5-min Rain = 0
KAM1 150153Z 17009KT 28/10 A2976 RMK A01 T02810102  RH  033%=      5-min Rain = 0
KAM1 150154Z 16010KT 28/10 A2976 RMK A01 T02790102  RH  033%=      5-min Rain = 0
KAM1 150155Z 16010KT 28/10 A2976 RMK A01 T02770103  RH  034%=      5-min Rain = 0
KAM1 150156Z 16009KT 28/10 A2976 RMK A01 T02760104  RH  034%=      5-min Rain = 0
KAM1 150157Z 16010KT 27/11 A2976 RMK A01 T02740105  RH  035%=      5-min Rain = 0
KAM1 150158Z 16010KT 27/10 A2976 RMK A01 T02730104  RH  035%=      5-min Rain = 0
KAM1 150159Z 16010KT 27/10 A2976 RMK A01 T02710104  RH  035%=      5-min Rain = 0
KAM1 150200Z 16009KT 27/11 A2976 RMK A01 T02700105  RH  036%=      5-min Rain = 0
KAM1 150201Z 16009KT 27/11 A2976 RMK A01 T02680107  RH  036%=      5-min Rain = 0
KAM1 150202Z 16009KT 27/11 A2976 RMK A01 T02660106  RH  037%=      5-min Rain = 0
KAM1 150203Z 16009KT 27/11 A2976 RMK A01 T02650107  RH  037%=      5-min Rain = 0
KAM1 150204Z 16009KT 26/11 A2976 RMK A01 T02630107  RH  038%=      5-min Rain = 0
KAM1 150205Z 16008KT 26/11 A2976 RMK A01 T02620108  RH  038%=      5-min Rain = 0
KAM1 150206Z 16007KT 26/11 A2976 RMK A01 T02600110  RH  039%=      5-min Rain = 0
KAM1 150207Z 16008KT 26/11 A2976 RMK A01 T02580110  RH  039%=      5-min Rain = 0
KAM1 150208Z 16008KT 26/11 A2976 RMK A01 T02570110  RH  040%=      5-min Rain = 0
KAM1 150209Z 17009KT 26/11 A2976 RMK A01 T02560107  RH  039%=      5-min Rain = 0
KAM1 150210Z 17009KT 26/11 A2976 RMK A01 T02560106  RH  039%=      5-min Rain = 0
KAM1 150211Z 17009KT 26/11 A2976 RMK A01 T02570106  RH  039%=      5-min Rain = 0
KAM1 150212Z 17009KT 26/11 A2976 RMK A01 T02570106  RH  039%=      5-min Rain = 0
KAM1 150213Z 18009KT 26/11 A2976 RMK A01 T02570107  RH  039%=      5-min Rain = 0
KAM1 150214Z 18010KT 26/10 A2975 RMK A01 T02560104  RH  038%=      5-min Rain = 0
KAM1 150215Z 18011KT 26/10 A2975 RMK A01 T02570101  RH  038%=      5-min Rain = 0
KAM1 150216Z 18012KT 26/10 A2975 RMK A01 T02600098  RH  036%=      5-min Rain = 0
KAM1 150217Z 18011KT 26/10 A2975 RMK A01 T02630100  RH  036%=      5-min Rain = 0
KAM1 150218Z 18012KT 26/10 A2975 RMK A01 T02630098  RH  035%=      5-min Rain = 0
KAM1 150219Z 18011KT 27/10 A2975 RMK A01 T02650097  RH  035%=      5-min Rain = 0
KAM1 150220Z 18011KT 27/10 A2976 RMK A01 T02660098  RH  035%=      5-min Rain = 0
KAM1 150221Z 19011KT 27/10 A2976 RMK A01 T02660098  RH  035%=      5-min Rain = 0
KAM1 150222Z 19013KT 27/10 A2976 RMK A01 T02660098  RH  035%=      5-min Rain = 0
KAM1 150223Z 19013KT 27/10 A2975 RMK A01 T02660096  RH  034%=      5-min Rain = 0
KAM1 150224Z 19014G19KT 27/10 A2975 RMK A01 T02680095  RH  034%=      5-min Rain = 0
KAM1 150225Z 19013KT 27/10 A2975 RMK A01 T02700096  RH  033%=      5-min Rain = 0
KAM1 150226Z 19014KT 27/10 A2975 RMK A01 T02710096  RH  033%=      5-min Rain = 0
KAM1 150227Z 19014KT 27/10 A2975 RMK A01 T02720095  RH  033%=      5-min Rain = 0
KAM1 150228Z 19013KT 27/10 A2975 RMK A01 T02730097  RH  033%=      5-min Rain = 0
KAM1 150229Z 19014KT 27/10 A2975 RMK A01 T02730096  RH  033%=      5-min Rain = 0
KAM1 150230Z 19012KT 27/10 A2975 RMK A01 T02730096  RH  033%=      5-min Rain = 0
KAM1 150231Z 19014G21KT 27/10 A2975 RMK A01 T02730096  RH  033%=      5-min Rain = 0
KAM1 150232Z 19015G21KT 27/10 A2975 RMK A01 T02730095  RH  033%=      5-min Rain = 0
KAM1 150233Z 19015KT 27/09 A2975 RMK A01 T02740094  RH  032%=      5-min Rain = 0
KAM1 150234Z 19016G21KT 28/09 A2976 RMK A01 T02750092  RH  032%=      5-min Rain = 0
KAM1 150235Z 20018KT 28/09 A2976 RMK A01 T02750091  RH  031%=      5-min Rain = 0
KAM1 150236Z 19016KT 28/09 A2976 RMK A01 T02760089  RH  031%=      5-min Rain = 0
KAM1 150237Z 19016KT 28/09 A2976 RMK A01 T02770089  RH  031%=      5-min Rain = 0
KAM1 150238Z 19018KT 28/09 A2976 RMK A01 T02770087  RH  030%=      5-min Rain = 0
KAM1 150239Z 19016G21KT 28/09 A2976 RMK A01 T02770086  RH  030%=      5-min Rain = 0
KAM1 150240Z 19016KT 28/09 A2976 RMK A01 T02780088  RH  030%=      5-min Rain = 0
KAM1 150241Z 19014KT 28/09 A2976 RMK A01 T02770086  RH  030%=      5-min Rain = 0
KAM1 150242Z 19014G19KT 28/09 A2976 RMK A01 T02760086  RH  030%=      5-min Rain = 0
KAM1 150243Z 19015KT 28/09 A2976 RMK A01 T02750085  RH  030%=      5-min Rain = 0
KAM1 150244Z 19014KT 28/09 A2976 RMK A01 T02750086  RH  030%=      5-min Rain = 0
KAM1 150245Z 19015KT 27/09 A2976 RMK A01 T02740086  RH  031%=      5-min Rain = 0
KAM1 150246Z 19013KT 27/09 A2976 RMK A01 T02740087  RH  031%=      5-min Rain = 0
KAM1 150247Z 19013KT 27/09 A2976 RMK A01 T02720086  RH  031%=      5-min Rain = 0
KAM1 150248Z 19013KT 27/09 A2976 RMK A01 T02720087  RH  031%=      5-min Rain = 0
KAM1 150249Z 18012KT 27/09 A2976 RMK A01 T02720087  RH  031%=      5-min Rain = 0
KAM1 150250Z 19011KT 27/09 A2976 RMK A01 T02710087  RH  031%=      5-min Rain = 0
KAM1 150251Z 18012KT 27/09 A2976 RMK A01 T02690088  RH  032%=      5-min Rain = 0
KAM1 150252Z 19013KT 27/09 A2976 RMK A01 T02680087  RH  032%=      5-min Rain = 0
KAM1 150253Z 18013KT 27/09 A2976 RMK A01 T02680086  RH  032%=      5-min Rain = 0
KAM1 150254Z 18012KT 27/09 A2976 RMK A01 T02680087  RH  032%=      5-min Rain = 0
KAM1 150255Z 18010KT 27/09 A2977 RMK A01 T02670088  RH  032%=      5-min Rain = 0
KAM1 150256Z 18012KT 27/09 A2977 RMK A01 T02660088  RH  032%=      5-min Rain = 0
KAM1 150257Z 18011KT 27/09 A2977 RMK A01 T02650089  RH  033%=      5-min Rain = 0
KAM1 150258Z 19011KT 26/09 A2977 RMK A01 T02640090  RH  033%=      5-min Rain = 0
KAM1 150259Z 19012KT 26/09 A2977 RMK A01 T02630089  RH  033%=      5-min Rain = 0
KAM1 150300Z 19012KT 26/09 A2977 RMK A01 T02630089  RH  033%=      5-min Rain = 0
KAM1 150301Z 18012KT 26/09 A2977 RMK A01 T02630088  RH  033%=      5-min Rain = 0
KAM1 150302Z 19011KT 26/09 A2977 RMK A01 T02630090  RH  033%=      5-min Rain = 0
KAM1 150303Z 19011KT 26/09 A2977 RMK A01 T02630090  RH  034%=      5-min Rain = 0
KAM1 150304Z 19012KT 26/09 A2977 RMK A01 T02620091  RH  034%=      5-min Rain = 0
KAM1 150305Z 19012KT 26/09 A2977 RMK A01 T02600090  RH  034%=      5-min Rain = 0
KAM1 150306Z 19012KT 26/09 A2977 RMK A01 T02600090  RH  034%=      5-min Rain = 0
KAM1 150307Z 19011KT 26/09 A2977 RMK A01 T02600090  RH  034%=      5-min Rain = 0
KAM1 150308Z 19012KT 26/09 A2977 RMK A01 T02600092  RH  034%=      5-min Rain = 0
KAM1 150309Z 19010KT 26/09 A2977 RMK A01 T02600092  RH  035%=      5-min Rain = 0
KAM1 150310Z 19012KT 26/09 A2977 RMK A01 T02590093  RH  035%=      5-min Rain = 0
KAM1 150311Z 19012KT 26/09 A2977 RMK A01 T02590093  RH  035%=      5-min Rain = 0
KAM1 150312Z 19012KT 26/09 A2977 RMK A01 T02590092  RH  035%=      5-min Rain = 0
KAM1 150313Z 19012KT 26/09 A2977 RMK A01 T02590093  RH  035%=      5-min Rain = 0
KAM1 150314Z 19013KT 26/09 A2977 RMK A01 T02590094  RH  035%=      5-min Rain = 0
KAM1 150315Z 19015KT 26/09 A2977 RMK A01 T02590093  RH  035%=      5-min Rain = 0
KAM1 150316Z 19013KT 26/09 A2977 RMK A01 T02610093  RH  035%=      5-min Rain = 0
KAM1 150317Z 19013KT 26/09 A2978 RMK A01 T02620094  RH  035%=      5-min Rain = 0
KAM1 150318Z 19013KT 26/09 A2978 RMK A01 T02620094  RH  034%=      5-min Rain = 0
KAM1 150319Z 19012KT 26/09 A2978 RMK A01 T02620094  RH  035%=      5-min Rain = 0
KAM1 150320Z 19012KT 26/10 A2978 RMK A01 T02610095  RH  035%=      5-min Rain = 0
KAM1 150321Z 19014KT 26/09 A2978 RMK A01 T02600094  RH  035%=      5-min Rain = 0
KAM1 150322Z 19014KT 26/09 A2978 RMK A01 T02600092  RH  035%=      5-min Rain = 0
KAM1 150323Z 19011KT 26/09 A2978 RMK A01 T02610092  RH  034%=      5-min Rain = 0
KAM1 150324Z 19012KT 26/09 A2978 RMK A01 T02610093  RH  035%=      5-min Rain = 0
KAM1 150325Z 19011KT 26/09 A2978 RMK A01 T02600091  RH  034%=      5-min Rain = 0
KAM1 150326Z 19013KT 26/09 A2978 RMK A01 T02600091  RH  034%=      5-min Rain = 0
KAM1 150327Z 19013KT 26/09 A2978 RMK A01 T02600088  RH  034%=      5-min Rain = 0
KAM1 150328Z 19013KT 26/09 A2978 RMK A01 T02610087  RH  033%=      5-min Rain = 0
KAM1 150329Z 19013KT 26/09 A2978 RMK A01 T02610085  RH  033%=      5-min Rain = 0
KAM1 150330Z 19014KT 26/08 A2978 RMK A01 T02610084  RH  033%=      5-min Rain = 0
KAM1 150331Z 19013KT 26/08 A2978 RMK A01 T02620084  RH  032%=      5-min Rain = 0
KAM1 150332Z 19013KT 26/08 A2978 RMK A01 T02620083  RH  032%=      5-min Rain = 0
KAM1 150333Z 19012KT 26/08 A2978 RMK A01 T02610083  RH  032%=      5-min Rain = 0
KAM1 150334Z 19013KT 26/08 A2978 RMK A01 T02610083  RH  032%=      5-min Rain = 0
KAM1 150335Z 18013KT 26/08 A2978 RMK A01 T02600082  RH  032%=      5-min Rain = 0
KAM1 150336Z 19015G20KT 26/08 A2978 RMK A01 T02600079  RH  032%=      5-min Rain = 0
KAM1 150337Z 19015KT 26/08 A2978 RMK A01 T02610076  RH  031%=      5-min Rain = 0
KAM1 150338Z 19013KT 26/08 A2978 RMK A01 T02630077  RH  031%=      5-min Rain = 0
KAM1 150339Z 19014KT 26/08 A2978 RMK A01 T02630076  RH  031%=      5-min Rain = 0
KAM1 150340Z 18014KT 26/08 A2979 RMK A01 T02630076  RH  031%=      5-min Rain = 0
KAM1 150341Z 18014G19KT 26/08 A2979 RMK A01 T02620075  RH  030%=      5-min Rain = 0
KAM1 150342Z 19015KT 26/07 A2979 RMK A01 T02620071  RH  030%=      5-min Rain = 0
KAM1 150343Z 18015KT 26/07 A2978 RMK A01 T02630069  RH  029%=      5-min Rain = 0
KAM1 150344Z 18015KT 26/07 A2979 RMK A01 T02640067  RH  029%=      5-min Rain = 0
KAM1 150345Z 19013KT 27/07 A2979 RMK A01 T02650068  RH  029%=      5-min Rain = 0
KAM1 150346Z 18015KT 27/07 A2979 RMK A01 T02650068  RH  029%=      5-min Rain = 0
KAM1 150347Z 19013KT 26/07 A2979 RMK A01 T02640067  RH  028%=      5-min Rain = 0
KAM1 150348Z 18013KT 26/07 A2979 RMK A01 T02640067  RH  028%=      5-min Rain = 0
KAM1 150349Z 19013KT 26/07 A2979 RMK A01 T02640067  RH  028%=      5-min Rain = 0
KAM1 150350Z 18013KT 26/07 A2979 RMK A01 T02640067  RH  029%=      5-min Rain = 0
KAM1 150351Z 19014G19KT 26/07 A2979 RMK A01 T02640068  RH  029%=      5-min Rain = 0
KAM1 150352Z 18013KT 26/07 A2979 RMK A01 T02630068  RH  029%=      5-min Rain = 0
KAM1 150353Z 19014KT 26/07 A2979 RMK A01 T02630069  RH  029%=      5-min Rain = 0
KAM1 150354Z 18014G19KT 26/07 A2979 RMK A01 T02640069  RH  029%=      5-min Rain = 0
KAM1 150355Z 18016G22KT 27/07 A2979 RMK A01 T02660070  RH  029%=      5-min Rain = 0
KAM1 150356Z 18017G24KT 27/07 A2979 RMK A01 T02670071  RH  029%=      5-min Rain = 0
KAM1 150357Z 18014G19KT 27/07 A2979 RMK A01 T02680073  RH  029%=      5-min Rain = 0
KAM1 150358Z 18017KT 27/07 A2979 RMK A01 T02680074  RH  029%=      5-min Rain = 0
KAM1 150359Z 18019KT 27/07 A2979 RMK A01 T02680073  RH  029%=      5-min Rain = 0
KAM1 150400Z 18017KT 27/07 A2979 RMK A01 T02690074  RH  029%=      5-min Rain = 0
KAM1 150401Z 18016KT 27/08 A298 RMK A01 T02710075  RH  029%=      5-min Rain = 0
KAM1 150402Z 18018KT 27/08 A298 RMK A01 T02710076  RH  029%=      5-min Rain = 0
KAM1 150403Z 18016KT 27/08 A298 RMK A01 T02710077  RH  029%=      5-min Rain = 0
KAM1 150404Z 18018KT 27/08 A298 RMK A01 T02710079  RH  030%=      5-min Rain = 0
KAM1 150405Z 17017G23KT 27/08 A298 RMK A01 T02710080  RH  030%=      5-min Rain = 0
KAM1 150406Z 17019KT 27/08 A298 RMK A01 T02710081  RH  030%=      5-min Rain = 0
KAM1 150407Z 18018G25KT 27/08 A298 RMK A01 T02710082  RH  030%=      5-min Rain = 0
KAM1 150408Z 18020KT 27/08 A298 RMK A01 T02710082  RH  030%=      5-min Rain = 0
KAM1 150409Z 18020KT 27/08 A298 RMK A01 T02720082  RH  030%=      5-min Rain = 0
KAM1 150410Z 17019G24KT 27/08 A298 RMK A01 T02730083  RH  030%=      5-min Rain = 0
KAM1 150411Z 18017G24KT 27/08 A298 RMK A01 T02720083  RH  030%=      5-min Rain = 0
KAM1 150412Z 18019KT 27/08 A298 RMK A01 T02710084  RH  031%=      5-min Rain = 0
KAM1 150413Z 17022G27KT 27/08 A298 RMK A01 T02700084  RH  031%=      5-min Rain = 0
KAM1 150414Z 17019G24KT 27/09 A298 RMK A01 T02700086  RH  031%=      5-min Rain = 0
KAM1 150415Z 18021KT 27/09 A298 RMK A01 T02700087  RH  032%=      5-min Rain = 0
KAM1 150416Z 17020KT 27/09 A298 RMK A01 T02690088  RH  032%=      5-min Rain = 0
KAM1 150417Z 17018G26KT 27/09 A298 RMK A01 T02690090  RH  032%=      5-min Rain = 0
KAM1 150418Z 17020KT 27/09 A298 RMK A01 T02680092  RH  033%=      5-min Rain = 0
KAM1 150419Z 18019KT 27/09 A298 RMK A01 T02670093  RH  033%=      5-min Rain = 0
KAM1 150420Z 18019G24KT 27/10 A298 RMK A01 T02670095  RH  034%=      5-min Rain = 0
KAM1 150421Z 17018G24KT 27/10 A298 RMK A01 T02660097  RH  035%=      5-min Rain = 0
KAM1 150422Z 17019KT 27/10 A298 RMK A01 T02650099  RH  035%=      5-min Rain = 0
KAM1 150423Z 18017G22KT 27/10 A298 RMK A01 T02650101  RH  036%=      5-min Rain = 0
KAM1 150424Z 17021G27KT 26/10 A298 RMK A01 T02640103  RH  037%=      5-min Rain = 0
KAM1 150425Z 18019G24KT 26/11 A298 RMK A01 T02630106  RH  037%=      5-min Rain = 0
KAM1 150426Z 17018KT 26/11 A298 RMK A01 T02640109  RH  038%=      5-min Rain = 0
KAM1 150427Z 18022KT 26/11 A298 RMK A01 T02640110  RH  038%=      5-min Rain = 0
KAM1 150428Z 18023KT 26/11 A298 RMK A01 T02630111  RH  039%=      5-min Rain = 0
KAM1 150429Z 18024G29KT 26/12 A298 RMK A01 T02640115  RH  039%=      5-min Rain = 0
KAM1 150430Z 18020G26KT 27/12 A298 RMK A01 T02650118  RH  040%=      5-min Rain = 0
KAM1 150431Z 18016KT 27/12 A298 RMK A01 T02650119  RH  040%=      5-min Rain = 0
KAM1 150432Z 18017KT 27/12 A298 RMK A01 T02650121  RH  041%=      5-min Rain = 0
KAM1 150433Z 18020G26KT 26/12 A298 RMK A01 T02640124  RH  042%=      5-min Rain = 0
KAM1 150434Z 18018G24KT 26/13 A298 RMK A01 T02640126  RH  042%=      5-min Rain = 0
KAM1 150435Z 18018G23KT 26/13 A298 RMK A01 T02640129  RH  043%=      5-min Rain = 0
KAM1 150436Z 18019G24KT 26/13 A298 RMK A01 T02630131  RH  044%=      5-min Rain = 0
KAM1 150437Z 18019G26KT 26/13 A298 RMK A01 T02630133  RH  045%=      5-min Rain = 0
KAM1 150438Z 18019KT 26/14 A298 RMK A01 T02630135  RH  045%=      5-min Rain = 0
KAM1 150439Z 17019G24KT 26/14 A298 RMK A01 T02630136  RH  045%=      5-min Rain = 0
KAM1 150440Z 18020KT 26/14 A298 RMK A01 T02640138  RH  046%=      5-min Rain = 0
KAM1 150441Z 18019KT 26/14 A298 RMK A01 T02640140  RH  046%=      5-min Rain = 0
KAM1 150442Z 18018G23KT 26/14 A298 RMK A01 T02640141  RH  047%=      5-min Rain = 0
KAM1 150443Z 18017KT 26/14 A298 RMK A01 T02640143  RH  047%=      5-min Rain = 0
KAM1 150444Z 18020KT 26/15 A298 RMK A01 T02640145  RH  048%=      5-min Rain = 0
KAM1 150445Z 18021G27KT 26/15 A298 RMK A01 T02630146  RH  048%=      5-min Rain = 0
KAM1 150446Z 18019G24KT 26/15 A298 RMK A01 T02640147  RH  049%=      5-min Rain = 0
KAM1 150447Z 18021KT 26/15 A298 RMK A01 T02640148  RH  049%=      5-min Rain = 0
KAM1 150448Z 18017G24KT 27/15 A298 RMK A01 T02650149  RH  049%=      5-min Rain = 0
KAM1 150449Z 18020KT 26/15 A298 RMK A01 T02640150  RH  050%=      5-min Rain = 0
KAM1 150450Z 18021KT 26/15 A298 RMK A01 T02630151  RH  050%=      5-min Rain = 0
KAM1 150451Z 18022G29KT 26/15 A298 RMK A01 T02630152  RH  050%=      5-min Rain = 0
KAM1 150452Z 18020KT 26/15 A298 RMK A01 T02630153  RH  051%=      5-min Rain = 0
KAM1 150453Z 18020G28KT 26/15 A298 RMK A01 T02630154  RH  051%=      5-min Rain = 0
KAM1 150454Z 18023KT 26/15 A298 RMK A01 T02620154  RH  052%=      5-min Rain = 0
KAM1 150455Z 18020G26KT 26/16 A298 RMK A01 T02620155  RH  052%=      5-min Rain = 0
KAM1 150456Z 18022KT 26/16 A298 RMK A01 T02620156  RH  052%=      5-min Rain = 0
KAM1 150457Z 19021G27KT 26/16 A298 RMK A01 T02620157  RH  052%=      5-min Rain = 0
KAM1 150458Z 18021G26KT 26/16 A298 RMK A01 T02610157  RH  053%=      5-min Rain = 0
KAM1 150459Z 19022KT 26/16 A298 RMK A01 T02610158  RH  053%=      5-min Rain = 0

Page generated in 0.0836 seconds.